<?xml version="1.0" encoding="UTF-8" standalone="no" ?>
<gpx xmlns="http://www.topografix.com/GPX/1/1" xmlns:xsi="http://www.w3.org/2001/XMLSchema-instance" xsi:schemaLocation="http://www.topografix.com/GPX/1/1 http://www.topografix.com/GPX/1/1/gpx.xsd" version="1.1" creator="VisuGPX - https://www.visugpx.com">
  <metadata>
    <name> 83 - V - Lorgues </name>
    <desc><![CDATA[ 83 - V - Lorgues : de  Berne au monastère 
2021-09-10]]></desc>
  </metadata>
  <trk>
    <name><![CDATA[Lorgues de  Berne au monastère 2021-09-10-01]]></name>
    <extensions>
      <line xmlns="http://www.topografix.com/GPX/gpx_style/0/2">
        <width>4</width>
      </line>
    </extensions>
    <trkseg>
      <trkpt lat="43.5251" lon="6.3461">
        <ele>307.3</ele>
        <time>2021-09-10T11:51:03.000Z</time>
      </trkpt>
      <trkpt lat="43.52527" lon="6.34617">
        <ele>306.8</ele>
        <time>2021-09-10T11:51:21.000Z</time>
      </trkpt>
      <trkpt lat="43.52537" lon="6.34622">
        <ele>307.2</ele>
        <time>2021-09-10T11:51:26.000Z</time>
      </trkpt>
      <trkpt lat="43.52545" lon="6.34628">
        <ele>306.8</ele>
        <time>2021-09-10T11:51:30.000Z</time>
      </trkpt>
      <trkpt lat="43.52556" lon="6.34632">
        <ele>305.9</ele>
        <time>2021-09-10T11:51:35.000Z</time>
      </trkpt>
      <trkpt lat="43.52566" lon="6.34637">
        <ele>304.8</ele>
        <time>2021-09-10T11:51:40.000Z</time>
      </trkpt>
      <trkpt lat="43.52576" lon="6.34641">
        <ele>304.1</ele>
        <time>2021-09-10T11:51:44.000Z</time>
      </trkpt>
      <trkpt lat="43.52586" lon="6.34646">
        <ele>303.1</ele>
        <time>2021-09-10T11:51:48.000Z</time>
      </trkpt>
      <trkpt lat="43.52596" lon="6.34647">
        <ele>302.4</ele>
        <time>2021-09-10T11:51:52.000Z</time>
      </trkpt>
      <trkpt lat="43.52606" lon="6.34648">
        <ele>301.4</ele>
        <time>2021-09-10T11:51:56.000Z</time>
      </trkpt>
      <trkpt lat="43.52615" lon="6.34647">
        <ele>300.2</ele>
        <time>2021-09-10T11:52:00.000Z</time>
      </trkpt>
      <trkpt lat="43.52626" lon="6.34644">
        <ele>299.6</ele>
        <time>2021-09-10T11:52:04.000Z</time>
      </trkpt>
      <trkpt lat="43.52635" lon="6.3464">
        <ele>298.6</ele>
        <time>2021-09-10T11:52:08.000Z</time>
      </trkpt>
      <trkpt lat="43.52646" lon="6.34636">
        <ele>297.1</ele>
        <time>2021-09-10T11:52:13.000Z</time>
      </trkpt>
      <trkpt lat="43.52655" lon="6.34632">
        <ele>295.9</ele>
        <time>2021-09-10T11:52:17.000Z</time>
      </trkpt>
      <trkpt lat="43.52663" lon="6.34626">
        <ele>294.4</ele>
        <time>2021-09-10T11:52:22.000Z</time>
      </trkpt>
      <trkpt lat="43.5267" lon="6.34616">
        <ele>293.7</ele>
        <time>2021-09-10T11:52:26.000Z</time>
      </trkpt>
      <trkpt lat="43.52678" lon="6.34605">
        <ele>293.3</ele>
        <time>2021-09-10T11:52:30.000Z</time>
      </trkpt>
      <trkpt lat="43.52685" lon="6.34597">
        <ele>293.2</ele>
        <time>2021-09-10T11:52:33.000Z</time>
      </trkpt>
      <trkpt lat="43.52694" lon="6.34589">
        <ele>293.3</ele>
        <time>2021-09-10T11:52:37.000Z</time>
      </trkpt>
      <trkpt lat="43.52704" lon="6.34588">
        <ele>293.5</ele>
        <time>2021-09-10T11:52:41.000Z</time>
      </trkpt>
      <trkpt lat="43.52711" lon="6.34581">
        <ele>293.3</ele>
        <time>2021-09-10T11:52:45.000Z</time>
      </trkpt>
      <trkpt lat="43.52712" lon="6.34567">
        <ele>293.4</ele>
        <time>2021-09-10T11:52:49.000Z</time>
      </trkpt>
      <trkpt lat="43.5271" lon="6.34553">
        <ele>293.9</ele>
        <time>2021-09-10T11:52:53.000Z</time>
      </trkpt>
      <trkpt lat="43.52707" lon="6.34539">
        <ele>293.8</ele>
        <time>2021-09-10T11:52:58.000Z</time>
      </trkpt>
      <trkpt lat="43.52701" lon="6.34526">
        <ele>293.6</ele>
        <time>2021-09-10T11:53:03.000Z</time>
      </trkpt>
      <trkpt lat="43.52694" lon="6.34516">
        <ele>293.5</ele>
        <time>2021-09-10T11:53:07.000Z</time>
      </trkpt>
      <trkpt lat="43.52688" lon="6.34506">
        <ele>293.7</ele>
        <time>2021-09-10T11:53:13.000Z</time>
      </trkpt>
      <trkpt lat="43.52681" lon="6.34498">
        <ele>293.8</ele>
        <time>2021-09-10T11:53:18.000Z</time>
      </trkpt>
      <trkpt lat="43.5267" lon="6.34492">
        <ele>293.7</ele>
        <time>2021-09-10T11:53:23.000Z</time>
      </trkpt>
      <trkpt lat="43.52661" lon="6.34488">
        <ele>293.9</ele>
        <time>2021-09-10T11:53:27.000Z</time>
      </trkpt>
      <trkpt lat="43.52651" lon="6.34483">
        <ele>294.1</ele>
        <time>2021-09-10T11:53:33.000Z</time>
      </trkpt>
      <trkpt lat="43.52642" lon="6.34483">
        <ele>294.4</ele>
        <time>2021-09-10T11:53:41.000Z</time>
      </trkpt>
      <trkpt lat="43.52633" lon="6.34481">
        <ele>294.5</ele>
        <time>2021-09-10T11:54:01.000Z</time>
      </trkpt>
      <trkpt lat="43.52623" lon="6.34481">
        <ele>294.7</ele>
        <time>2021-09-10T11:54:11.000Z</time>
      </trkpt>
      <trkpt lat="43.52614" lon="6.34482">
        <ele>295</ele>
        <time>2021-09-10T11:54:20.000Z</time>
      </trkpt>
      <trkpt lat="43.52604" lon="6.34481">
        <ele>295</ele>
        <time>2021-09-10T11:54:28.000Z</time>
      </trkpt>
      <trkpt lat="43.52594" lon="6.34476">
        <ele>295.2</ele>
        <time>2021-09-10T11:54:35.000Z</time>
      </trkpt>
      <trkpt lat="43.52592" lon="6.34464">
        <ele>295.4</ele>
        <time>2021-09-10T11:54:44.000Z</time>
      </trkpt>
      <trkpt lat="43.5259" lon="6.34451">
        <ele>295.4</ele>
        <time>2021-09-10T11:54:51.000Z</time>
      </trkpt>
      <trkpt lat="43.52587" lon="6.34439">
        <ele>295.5</ele>
        <time>2021-09-10T11:54:57.000Z</time>
      </trkpt>
      <trkpt lat="43.52586" lon="6.34425">
        <ele>295.7</ele>
        <time>2021-09-10T11:55:05.000Z</time>
      </trkpt>
      <trkpt lat="43.52587" lon="6.34412">
        <ele>295.6</ele>
        <time>2021-09-10T11:55:14.000Z</time>
      </trkpt>
      <trkpt lat="43.52584" lon="6.34399">
        <ele>296</ele>
        <time>2021-09-10T11:55:24.000Z</time>
      </trkpt>
      <trkpt lat="43.52581" lon="6.34387">
        <ele>296.2</ele>
        <time>2021-09-10T11:55:33.000Z</time>
      </trkpt>
      <trkpt lat="43.52583" lon="6.34375">
        <ele>296.2</ele>
        <time>2021-09-10T11:55:41.000Z</time>
      </trkpt>
      <trkpt lat="43.52585" lon="6.34363">
        <ele>296.2</ele>
        <time>2021-09-10T11:55:50.000Z</time>
      </trkpt>
      <trkpt lat="43.52594" lon="6.34356">
        <ele>296.4</ele>
        <time>2021-09-10T11:56:00.000Z</time>
      </trkpt>
      <trkpt lat="43.52601" lon="6.34349">
        <ele>296.6</ele>
        <time>2021-09-10T11:56:10.000Z</time>
      </trkpt>
      <trkpt lat="43.52604" lon="6.34337">
        <ele>297.4</ele>
        <time>2021-09-10T11:56:23.000Z</time>
      </trkpt>
      <trkpt lat="43.52602" lon="6.34325">
        <ele>298.5</ele>
        <time>2021-09-10T11:57:32.000Z</time>
      </trkpt>
      <trkpt lat="43.52593" lon="6.34324">
        <ele>298.2</ele>
        <time>2021-09-10T11:57:46.000Z</time>
      </trkpt>
      <trkpt lat="43.52584" lon="6.34322">
        <ele>298</ele>
        <time>2021-09-10T11:58:01.000Z</time>
      </trkpt>
      <trkpt lat="43.52575" lon="6.34319">
        <ele>298.4</ele>
        <time>2021-09-10T11:58:10.000Z</time>
      </trkpt>
      <trkpt lat="43.52566" lon="6.34313">
        <ele>298.7</ele>
        <time>2021-09-10T11:58:19.000Z</time>
      </trkpt>
      <trkpt lat="43.52558" lon="6.34305">
        <ele>299.3</ele>
        <time>2021-09-10T11:58:32.000Z</time>
      </trkpt>
      <trkpt lat="43.52553" lon="6.34294">
        <ele>300.2</ele>
        <time>2021-09-10T11:58:49.000Z</time>
      </trkpt>
      <trkpt lat="43.52548" lon="6.34283">
        <ele>300.8</ele>
        <time>2021-09-10T11:59:01.000Z</time>
      </trkpt>
      <trkpt lat="43.52543" lon="6.34273">
        <ele>301.8</ele>
        <time>2021-09-10T11:59:14.000Z</time>
      </trkpt>
      <trkpt lat="43.52537" lon="6.34263">
        <ele>302.8</ele>
        <time>2021-09-10T11:59:29.000Z</time>
      </trkpt>
      <trkpt lat="43.52533" lon="6.34251">
        <ele>304.1</ele>
        <time>2021-09-10T11:59:41.000Z</time>
      </trkpt>
      <trkpt lat="43.52529" lon="6.34239">
        <ele>304.7</ele>
        <time>2021-09-10T11:59:53.000Z</time>
      </trkpt>
      <trkpt lat="43.52526" lon="6.34227">
        <ele>305.6</ele>
        <time>2021-09-10T12:00:04.000Z</time>
      </trkpt>
      <trkpt lat="43.52524" lon="6.34215">
        <ele>306.2</ele>
        <time>2021-09-10T12:00:15.000Z</time>
      </trkpt>
      <trkpt lat="43.52523" lon="6.34202">
        <ele>307.2</ele>
        <time>2021-09-10T12:00:26.000Z</time>
      </trkpt>
      <trkpt lat="43.52522" lon="6.34189">
        <ele>307.4</ele>
        <time>2021-09-10T12:00:36.000Z</time>
      </trkpt>
      <trkpt lat="43.52521" lon="6.34176">
        <ele>307.5</ele>
        <time>2021-09-10T12:00:46.000Z</time>
      </trkpt>
      <trkpt lat="43.52523" lon="6.34163">
        <ele>307.3</ele>
        <time>2021-09-10T12:00:56.000Z</time>
      </trkpt>
      <trkpt lat="43.52525" lon="6.34151">
        <ele>307.3</ele>
        <time>2021-09-10T12:01:06.000Z</time>
      </trkpt>
      <trkpt lat="43.52527" lon="6.34138">
        <ele>307.6</ele>
        <time>2021-09-10T12:01:17.000Z</time>
      </trkpt>
      <trkpt lat="43.5253" lon="6.34125">
        <ele>308</ele>
        <time>2021-09-10T12:01:27.000Z</time>
      </trkpt>
      <trkpt lat="43.52532" lon="6.34113">
        <ele>308.7</ele>
        <time>2021-09-10T12:01:38.000Z</time>
      </trkpt>
      <trkpt lat="43.52535" lon="6.34101">
        <ele>309.1</ele>
        <time>2021-09-10T12:01:49.000Z</time>
      </trkpt>
      <trkpt lat="43.52534" lon="6.34088">
        <ele>310.2</ele>
        <time>2021-09-10T12:02:03.000Z</time>
      </trkpt>
      <trkpt lat="43.52528" lon="6.34078">
        <ele>310.5</ele>
        <time>2021-09-10T12:02:14.000Z</time>
      </trkpt>
      <trkpt lat="43.52522" lon="6.34066">
        <ele>310.6</ele>
        <time>2021-09-10T12:02:24.000Z</time>
      </trkpt>
      <trkpt lat="43.52517" lon="6.34055">
        <ele>311.3</ele>
        <time>2021-09-10T12:02:34.000Z</time>
      </trkpt>
      <trkpt lat="43.52512" lon="6.34043">
        <ele>311.7</ele>
        <time>2021-09-10T12:02:45.000Z</time>
      </trkpt>
      <trkpt lat="43.52506" lon="6.34034">
        <ele>312.4</ele>
        <time>2021-09-10T12:02:59.000Z</time>
      </trkpt>
      <trkpt lat="43.525" lon="6.34024">
        <ele>312.5</ele>
        <time>2021-09-10T12:03:12.000Z</time>
      </trkpt>
      <trkpt lat="43.52494" lon="6.34014">
        <ele>312.8</ele>
        <time>2021-09-10T12:03:22.000Z</time>
      </trkpt>
      <trkpt lat="43.52488" lon="6.34004">
        <ele>313.1</ele>
        <time>2021-09-10T12:03:33.000Z</time>
      </trkpt>
      <trkpt lat="43.52482" lon="6.33995">
        <ele>313.6</ele>
        <time>2021-09-10T12:03:44.000Z</time>
      </trkpt>
      <trkpt lat="43.52475" lon="6.33986">
        <ele>314.1</ele>
        <time>2021-09-10T12:03:55.000Z</time>
      </trkpt>
      <trkpt lat="43.52468" lon="6.33978">
        <ele>315</ele>
        <time>2021-09-10T12:04:06.000Z</time>
      </trkpt>
      <trkpt lat="43.5246" lon="6.3397">
        <ele>315.8</ele>
        <time>2021-09-10T12:04:17.000Z</time>
      </trkpt>
      <trkpt lat="43.52453" lon="6.33961">
        <ele>316.4</ele>
        <time>2021-09-10T12:04:30.000Z</time>
      </trkpt>
      <trkpt lat="43.52447" lon="6.33952">
        <ele>317.3</ele>
        <time>2021-09-10T12:04:42.000Z</time>
      </trkpt>
      <trkpt lat="43.52447" lon="6.33939">
        <ele>317.9</ele>
        <time>2021-09-10T12:04:55.000Z</time>
      </trkpt>
      <trkpt lat="43.52444" lon="6.33926">
        <ele>317.5</ele>
        <time>2021-09-10T12:05:09.000Z</time>
      </trkpt>
      <trkpt lat="43.5244" lon="6.33913">
        <ele>317.8</ele>
        <time>2021-09-10T12:05:18.000Z</time>
      </trkpt>
      <trkpt lat="43.52435" lon="6.33903">
        <ele>317.9</ele>
        <time>2021-09-10T12:05:26.000Z</time>
      </trkpt>
      <trkpt lat="43.52429" lon="6.33893">
        <ele>317.8</ele>
        <time>2021-09-10T12:05:35.000Z</time>
      </trkpt>
      <trkpt lat="43.52426" lon="6.3388">
        <ele>317.9</ele>
        <time>2021-09-10T12:05:43.000Z</time>
      </trkpt>
      <trkpt lat="43.52424" lon="6.33868">
        <ele>318.3</ele>
        <time>2021-09-10T12:05:53.000Z</time>
      </trkpt>
      <trkpt lat="43.52421" lon="6.33855">
        <ele>318.9</ele>
        <time>2021-09-10T12:06:03.000Z</time>
      </trkpt>
      <trkpt lat="43.5242" lon="6.33842">
        <ele>319.4</ele>
        <time>2021-09-10T12:06:14.000Z</time>
      </trkpt>
      <trkpt lat="43.52419" lon="6.3383">
        <ele>320.8</ele>
        <time>2021-09-10T12:06:28.000Z</time>
      </trkpt>
      <trkpt lat="43.52415" lon="6.33818">
        <ele>320.9</ele>
        <time>2021-09-10T12:07:19.000Z</time>
      </trkpt>
      <trkpt lat="43.52422" lon="6.3381">
        <ele>322.9</ele>
        <time>2021-09-10T12:09:20.000Z</time>
      </trkpt>
      <trkpt lat="43.52431" lon="6.33805">
        <ele>323.4</ele>
        <time>2021-09-10T12:09:56.000Z</time>
      </trkpt>
      <trkpt lat="43.52438" lon="6.33797">
        <ele>323.6</ele>
        <time>2021-09-10T12:10:13.000Z</time>
      </trkpt>
      <trkpt lat="43.52447" lon="6.33791">
        <ele>323.6</ele>
        <time>2021-09-10T12:10:25.000Z</time>
      </trkpt>
      <trkpt lat="43.52455" lon="6.33785">
        <ele>323.8</ele>
        <time>2021-09-10T12:10:41.000Z</time>
      </trkpt>
      <trkpt lat="43.52463" lon="6.33778">
        <ele>323.9</ele>
        <time>2021-09-10T12:11:00.000Z</time>
      </trkpt>
      <trkpt lat="43.52471" lon="6.3377">
        <ele>323.2</ele>
        <time>2021-09-10T12:11:16.000Z</time>
      </trkpt>
      <trkpt lat="43.52478" lon="6.3376">
        <ele>322.8</ele>
        <time>2021-09-10T12:11:30.000Z</time>
      </trkpt>
      <trkpt lat="43.52485" lon="6.33752">
        <ele>322.4</ele>
        <time>2021-09-10T12:11:43.000Z</time>
      </trkpt>
      <trkpt lat="43.52493" lon="6.33744">
        <ele>322.3</ele>
        <time>2021-09-10T12:11:54.000Z</time>
      </trkpt>
      <trkpt lat="43.52498" lon="6.33734">
        <ele>321.8</ele>
        <time>2021-09-10T12:12:08.000Z</time>
      </trkpt>
      <trkpt lat="43.52504" lon="6.33724">
        <ele>321.7</ele>
        <time>2021-09-10T12:12:24.000Z</time>
      </trkpt>
      <trkpt lat="43.52508" lon="6.33713">
        <ele>320.9</ele>
        <time>2021-09-10T12:12:36.000Z</time>
      </trkpt>
      <trkpt lat="43.52514" lon="6.33702">
        <ele>320.3</ele>
        <time>2021-09-10T12:12:50.000Z</time>
      </trkpt>
      <trkpt lat="43.5252" lon="6.33692">
        <ele>319.4</ele>
        <time>2021-09-10T12:13:00.000Z</time>
      </trkpt>
      <trkpt lat="43.52527" lon="6.33683">
        <ele>318.9</ele>
        <time>2021-09-10T12:13:14.000Z</time>
      </trkpt>
      <trkpt lat="43.52534" lon="6.33675">
        <ele>318.6</ele>
        <time>2021-09-10T12:13:27.000Z</time>
      </trkpt>
      <trkpt lat="43.5254" lon="6.33665">
        <ele>318.1</ele>
        <time>2021-09-10T12:13:39.000Z</time>
      </trkpt>
      <trkpt lat="43.52545" lon="6.33654">
        <ele>317.5</ele>
        <time>2021-09-10T12:13:50.000Z</time>
      </trkpt>
      <trkpt lat="43.52548" lon="6.33642">
        <ele>316.7</ele>
        <time>2021-09-10T12:14:01.000Z</time>
      </trkpt>
      <trkpt lat="43.52552" lon="6.3363">
        <ele>316.4</ele>
        <time>2021-09-10T12:14:11.000Z</time>
      </trkpt>
      <trkpt lat="43.52557" lon="6.33619">
        <ele>316.3</ele>
        <time>2021-09-10T12:14:23.000Z</time>
      </trkpt>
      <trkpt lat="43.52563" lon="6.3361">
        <ele>315.5</ele>
        <time>2021-09-10T12:14:32.000Z</time>
      </trkpt>
      <trkpt lat="43.52571" lon="6.33602">
        <ele>314.5</ele>
        <time>2021-09-10T12:14:41.000Z</time>
      </trkpt>
      <trkpt lat="43.52579" lon="6.33596">
        <ele>313.9</ele>
        <time>2021-09-10T12:14:51.000Z</time>
      </trkpt>
      <trkpt lat="43.52587" lon="6.33589">
        <ele>313.1</ele>
        <time>2021-09-10T12:15:03.000Z</time>
      </trkpt>
      <trkpt lat="43.52595" lon="6.33583">
        <ele>312.3</ele>
        <time>2021-09-10T12:15:16.000Z</time>
      </trkpt>
      <trkpt lat="43.526" lon="6.33572">
        <ele>312.5</ele>
        <time>2021-09-10T12:15:28.000Z</time>
      </trkpt>
      <trkpt lat="43.52606" lon="6.33562">
        <ele>313.1</ele>
        <time>2021-09-10T12:15:37.000Z</time>
      </trkpt>
      <trkpt lat="43.52609" lon="6.33549">
        <ele>314.2</ele>
        <time>2021-09-10T12:15:52.000Z</time>
      </trkpt>
      <trkpt lat="43.52613" lon="6.33537">
        <ele>313.8</ele>
        <time>2021-09-10T12:16:03.000Z</time>
      </trkpt>
      <trkpt lat="43.52614" lon="6.33524">
        <ele>314.3</ele>
        <time>2021-09-10T12:16:13.000Z</time>
      </trkpt>
      <trkpt lat="43.52614" lon="6.33511">
        <ele>314.2</ele>
        <time>2021-09-10T12:16:25.000Z</time>
      </trkpt>
      <trkpt lat="43.52615" lon="6.33498">
        <ele>314.8</ele>
        <time>2021-09-10T12:16:38.000Z</time>
      </trkpt>
      <trkpt lat="43.52617" lon="6.33485">
        <ele>315.9</ele>
        <time>2021-09-10T12:16:53.000Z</time>
      </trkpt>
      <trkpt lat="43.52618" lon="6.33473">
        <ele>317</ele>
        <time>2021-09-10T12:17:06.000Z</time>
      </trkpt>
      <trkpt lat="43.52622" lon="6.33461">
        <ele>317.8</ele>
        <time>2021-09-10T12:17:17.000Z</time>
      </trkpt>
      <trkpt lat="43.5262" lon="6.33449">
        <ele>318.5</ele>
        <time>2021-09-10T12:17:29.000Z</time>
      </trkpt>
      <trkpt lat="43.52619" lon="6.33436">
        <ele>319</ele>
        <time>2021-09-10T12:17:41.000Z</time>
      </trkpt>
      <trkpt lat="43.5262" lon="6.33424">
        <ele>319.8</ele>
        <time>2021-09-10T12:17:53.000Z</time>
      </trkpt>
      <trkpt lat="43.52618" lon="6.33412">
        <ele>320.1</ele>
        <time>2021-09-10T12:18:07.000Z</time>
      </trkpt>
      <trkpt lat="43.52616" lon="6.33399">
        <ele>320.7</ele>
        <time>2021-09-10T12:18:18.000Z</time>
      </trkpt>
      <trkpt lat="43.52617" lon="6.33386">
        <ele>320.8</ele>
        <time>2021-09-10T12:18:28.000Z</time>
      </trkpt>
      <trkpt lat="43.52616" lon="6.33373">
        <ele>321.1</ele>
        <time>2021-09-10T12:18:41.000Z</time>
      </trkpt>
      <trkpt lat="43.52614" lon="6.3336">
        <ele>321.2</ele>
        <time>2021-09-10T12:18:53.000Z</time>
      </trkpt>
      <trkpt lat="43.52614" lon="6.33348">
        <ele>321.8</ele>
        <time>2021-09-10T12:19:05.000Z</time>
      </trkpt>
      <trkpt lat="43.52611" lon="6.33335">
        <ele>322.4</ele>
        <time>2021-09-10T12:19:16.000Z</time>
      </trkpt>
      <trkpt lat="43.52604" lon="6.33328">
        <ele>323.4</ele>
        <time>2021-09-10T12:19:29.000Z</time>
      </trkpt>
      <trkpt lat="43.52595" lon="6.33328">
        <ele>323.2</ele>
        <time>2021-09-10T12:19:40.000Z</time>
      </trkpt>
      <trkpt lat="43.52585" lon="6.33328">
        <ele>323.1</ele>
        <time>2021-09-10T12:19:51.000Z</time>
      </trkpt>
      <trkpt lat="43.52575" lon="6.3333">
        <ele>323.5</ele>
        <time>2021-09-10T12:20:03.000Z</time>
      </trkpt>
      <trkpt lat="43.52566" lon="6.33331">
        <ele>324.4</ele>
        <time>2021-09-10T12:20:14.000Z</time>
      </trkpt>
      <trkpt lat="43.52557" lon="6.33328">
        <ele>325</ele>
        <time>2021-09-10T12:20:26.000Z</time>
      </trkpt>
      <trkpt lat="43.52551" lon="6.33318">
        <ele>325.5</ele>
        <time>2021-09-10T12:20:42.000Z</time>
      </trkpt>
      <trkpt lat="43.52551" lon="6.33306">
        <ele>326.7</ele>
        <time>2021-09-10T12:21:31.000Z</time>
      </trkpt>
      <trkpt lat="43.52551" lon="6.33293">
        <ele>327.5</ele>
        <time>2021-09-10T12:21:49.000Z</time>
      </trkpt>
      <trkpt lat="43.52552" lon="6.33281">
        <ele>328.4</ele>
        <time>2021-09-10T12:22:00.000Z</time>
      </trkpt>
      <trkpt lat="43.52551" lon="6.33268">
        <ele>329.3</ele>
        <time>2021-09-10T12:22:11.000Z</time>
      </trkpt>
      <trkpt lat="43.5255" lon="6.33255">
        <ele>330.4</ele>
        <time>2021-09-10T12:22:23.000Z</time>
      </trkpt>
      <trkpt lat="43.52551" lon="6.33242">
        <ele>331.3</ele>
        <time>2021-09-10T12:22:33.000Z</time>
      </trkpt>
      <trkpt lat="43.52553" lon="6.3323">
        <ele>331.9</ele>
        <time>2021-09-10T12:22:50.000Z</time>
      </trkpt>
      <trkpt lat="43.52555" lon="6.33218">
        <ele>332.1</ele>
        <time>2021-09-10T12:23:27.000Z</time>
      </trkpt>
      <trkpt lat="43.52552" lon="6.33206">
        <ele>332.1</ele>
        <time>2021-09-10T12:25:43.000Z</time>
      </trkpt>
      <trkpt lat="43.52552" lon="6.33193">
        <ele>331.4</ele>
        <time>2021-09-10T12:25:59.000Z</time>
      </trkpt>
      <trkpt lat="43.52552" lon="6.3318">
        <ele>330.4</ele>
        <time>2021-09-10T12:26:14.000Z</time>
      </trkpt>
      <trkpt lat="43.52548" lon="6.33169">
        <ele>329.6</ele>
        <time>2021-09-10T12:26:28.000Z</time>
      </trkpt>
      <trkpt lat="43.52543" lon="6.33159">
        <ele>329</ele>
        <time>2021-09-10T12:26:40.000Z</time>
      </trkpt>
      <trkpt lat="43.52539" lon="6.33147">
        <ele>329</ele>
        <time>2021-09-10T12:26:51.000Z</time>
      </trkpt>
      <trkpt lat="43.52539" lon="6.33135">
        <ele>328.5</ele>
        <time>2021-09-10T12:27:11.000Z</time>
      </trkpt>
      <trkpt lat="43.52546" lon="6.33126">
        <ele>328.2</ele>
        <time>2021-09-10T12:27:24.000Z</time>
      </trkpt>
      <trkpt lat="43.52555" lon="6.33124">
        <ele>326.5</ele>
        <time>2021-09-10T12:27:44.000Z</time>
      </trkpt>
      <trkpt lat="43.52564" lon="6.33121">
        <ele>325.3</ele>
        <time>2021-09-10T12:27:57.000Z</time>
      </trkpt>
      <trkpt lat="43.52573" lon="6.33117">
        <ele>324.1</ele>
        <time>2021-09-10T12:28:11.000Z</time>
      </trkpt>
      <trkpt lat="43.52582" lon="6.33113">
        <ele>322.7</ele>
        <time>2021-09-10T12:28:24.000Z</time>
      </trkpt>
      <trkpt lat="43.52591" lon="6.3311">
        <ele>321.9</ele>
        <time>2021-09-10T12:28:34.000Z</time>
      </trkpt>
      <trkpt lat="43.52601" lon="6.3311">
        <ele>321.1</ele>
        <time>2021-09-10T12:28:48.000Z</time>
      </trkpt>
      <trkpt lat="43.5261" lon="6.33113">
        <ele>319.8</ele>
        <time>2021-09-10T12:29:02.000Z</time>
      </trkpt>
      <trkpt lat="43.52619" lon="6.33114">
        <ele>318.7</ele>
        <time>2021-09-10T12:29:14.000Z</time>
      </trkpt>
      <trkpt lat="43.52628" lon="6.33111">
        <ele>317.4</ele>
        <time>2021-09-10T12:29:34.000Z</time>
      </trkpt>
      <trkpt lat="43.52635" lon="6.33102">
        <ele>315.4</ele>
        <time>2021-09-10T12:29:53.000Z</time>
      </trkpt>
      <trkpt lat="43.52643" lon="6.33095">
        <ele>314.3</ele>
        <time>2021-09-10T12:30:07.000Z</time>
      </trkpt>
      <trkpt lat="43.52652" lon="6.33088">
        <ele>313.7</ele>
        <time>2021-09-10T12:30:16.000Z</time>
      </trkpt>
      <trkpt lat="43.52658" lon="6.33078">
        <ele>313</ele>
        <time>2021-09-10T12:30:25.000Z</time>
      </trkpt>
      <trkpt lat="43.52658" lon="6.33065">
        <ele>312.8</ele>
        <time>2021-09-10T12:30:37.000Z</time>
      </trkpt>
      <trkpt lat="43.52664" lon="6.33056">
        <ele>313.2</ele>
        <time>2021-09-10T12:30:47.000Z</time>
      </trkpt>
      <trkpt lat="43.52673" lon="6.33056">
        <ele>312.7</ele>
        <time>2021-09-10T12:30:59.000Z</time>
      </trkpt>
      <trkpt lat="43.52683" lon="6.33053">
        <ele>313.2</ele>
        <time>2021-09-10T12:31:09.000Z</time>
      </trkpt>
      <trkpt lat="43.52689" lon="6.33043">
        <ele>313.4</ele>
        <time>2021-09-10T12:31:20.000Z</time>
      </trkpt>
      <trkpt lat="43.52695" lon="6.33033">
        <ele>313.5</ele>
        <time>2021-09-10T12:31:29.000Z</time>
      </trkpt>
      <trkpt lat="43.52701" lon="6.33023">
        <ele>313.4</ele>
        <time>2021-09-10T12:31:43.000Z</time>
      </trkpt>
      <trkpt lat="43.52707" lon="6.33013">
        <ele>313.5</ele>
        <time>2021-09-10T12:31:53.000Z</time>
      </trkpt>
      <trkpt lat="43.52713" lon="6.33002">
        <ele>313.7</ele>
        <time>2021-09-10T12:32:02.000Z</time>
      </trkpt>
      <trkpt lat="43.52715" lon="6.32989">
        <ele>314.1</ele>
        <time>2021-09-10T12:32:12.000Z</time>
      </trkpt>
      <trkpt lat="43.52719" lon="6.32977">
        <ele>313.9</ele>
        <time>2021-09-10T12:32:26.000Z</time>
      </trkpt>
      <trkpt lat="43.52724" lon="6.32966">
        <ele>313.9</ele>
        <time>2021-09-10T12:32:44.000Z</time>
      </trkpt>
      <trkpt lat="43.52728" lon="6.32954">
        <ele>314.1</ele>
        <time>2021-09-10T12:32:54.000Z</time>
      </trkpt>
      <trkpt lat="43.52736" lon="6.32946">
        <ele>312.4</ele>
        <time>2021-09-10T12:33:09.000Z</time>
      </trkpt>
      <trkpt lat="43.52741" lon="6.32935">
        <ele>314.9</ele>
        <time>2021-09-10T12:33:22.000Z</time>
      </trkpt>
      <trkpt lat="43.52743" lon="6.32923">
        <ele>315.2</ele>
        <time>2021-09-10T12:33:33.000Z</time>
      </trkpt>
      <trkpt lat="43.52747" lon="6.32911">
        <ele>315.2</ele>
        <time>2021-09-10T12:33:44.000Z</time>
      </trkpt>
      <trkpt lat="43.52749" lon="6.32899">
        <ele>315.2</ele>
        <time>2021-09-10T12:33:55.000Z</time>
      </trkpt>
      <trkpt lat="43.52751" lon="6.32886">
        <ele>315.1</ele>
        <time>2021-09-10T12:34:06.000Z</time>
      </trkpt>
      <trkpt lat="43.52754" lon="6.32873">
        <ele>315.1</ele>
        <time>2021-09-10T12:34:18.000Z</time>
      </trkpt>
      <trkpt lat="43.52758" lon="6.32861">
        <ele>315</ele>
        <time>2021-09-10T12:34:27.000Z</time>
      </trkpt>
      <trkpt lat="43.52762" lon="6.3285">
        <ele>315.1</ele>
        <time>2021-09-10T12:34:38.000Z</time>
      </trkpt>
      <trkpt lat="43.52766" lon="6.32838">
        <ele>315.1</ele>
        <time>2021-09-10T12:34:52.000Z</time>
      </trkpt>
      <trkpt lat="43.5277" lon="6.32827">
        <ele>314.9</ele>
        <time>2021-09-10T12:35:02.000Z</time>
      </trkpt>
      <trkpt lat="43.52774" lon="6.32814">
        <ele>314.6</ele>
        <time>2021-09-10T12:35:16.000Z</time>
      </trkpt>
      <trkpt lat="43.52777" lon="6.32802">
        <ele>314.6</ele>
        <time>2021-09-10T12:35:27.000Z</time>
      </trkpt>
      <trkpt lat="43.5278" lon="6.32789">
        <ele>314.9</ele>
        <time>2021-09-10T12:35:37.000Z</time>
      </trkpt>
      <trkpt lat="43.52783" lon="6.32777">
        <ele>314.8</ele>
        <time>2021-09-10T12:35:48.000Z</time>
      </trkpt>
      <trkpt lat="43.52789" lon="6.32766">
        <ele>315.2</ele>
        <time>2021-09-10T12:35:59.000Z</time>
      </trkpt>
      <trkpt lat="43.52792" lon="6.32754">
        <ele>315.5</ele>
        <time>2021-09-10T12:36:12.000Z</time>
      </trkpt>
      <trkpt lat="43.52796" lon="6.32742">
        <ele>315.7</ele>
        <time>2021-09-10T12:36:23.000Z</time>
      </trkpt>
      <trkpt lat="43.52798" lon="6.32729">
        <ele>316.1</ele>
        <time>2021-09-10T12:36:34.000Z</time>
      </trkpt>
      <trkpt lat="43.52803" lon="6.32717">
        <ele>316.3</ele>
        <time>2021-09-10T12:36:45.000Z</time>
      </trkpt>
      <trkpt lat="43.52808" lon="6.32707">
        <ele>316.8</ele>
        <time>2021-09-10T12:36:54.000Z</time>
      </trkpt>
      <trkpt lat="43.52812" lon="6.32696">
        <ele>317.4</ele>
        <time>2021-09-10T12:37:04.000Z</time>
      </trkpt>
      <trkpt lat="43.52816" lon="6.32684">
        <ele>317.8</ele>
        <time>2021-09-10T12:37:13.000Z</time>
      </trkpt>
      <trkpt lat="43.52825" lon="6.32679">
        <ele>318.3</ele>
        <time>2021-09-10T12:37:23.000Z</time>
      </trkpt>
      <trkpt lat="43.52834" lon="6.32677">
        <ele>319.9</ele>
        <time>2021-09-10T12:38:14.000Z</time>
      </trkpt>
      <trkpt lat="43.52843" lon="6.32676">
        <ele>320.5</ele>
        <time>2021-09-10T12:38:42.000Z</time>
      </trkpt>
      <trkpt lat="43.52852" lon="6.32679">
        <ele>321.2</ele>
        <time>2021-09-10T12:39:01.000Z</time>
      </trkpt>
      <trkpt lat="43.52861" lon="6.32685">
        <ele>322.2</ele>
        <time>2021-09-10T12:39:10.000Z</time>
      </trkpt>
      <trkpt lat="43.5287" lon="6.32687">
        <ele>323.4</ele>
        <time>2021-09-10T12:39:22.000Z</time>
      </trkpt>
      <trkpt lat="43.52873" lon="6.32675">
        <ele>323.1</ele>
        <time>2021-09-10T12:39:41.000Z</time>
      </trkpt>
      <trkpt lat="43.52874" lon="6.32662">
        <ele>322.5</ele>
        <time>2021-09-10T12:39:51.000Z</time>
      </trkpt>
      <trkpt lat="43.52878" lon="6.3265">
        <ele>322.8</ele>
        <time>2021-09-10T12:40:18.000Z</time>
      </trkpt>
      <trkpt lat="43.52878" lon="6.32637">
        <ele>323.5</ele>
        <time>2021-09-10T12:40:57.000Z</time>
      </trkpt>
      <trkpt lat="43.52878" lon="6.32624">
        <ele>323.8</ele>
        <time>2021-09-10T12:41:06.000Z</time>
      </trkpt>
      <trkpt lat="43.5288" lon="6.32611">
        <ele>324.5</ele>
        <time>2021-09-10T12:41:15.000Z</time>
      </trkpt>
      <trkpt lat="43.52883" lon="6.32598">
        <ele>325.3</ele>
        <time>2021-09-10T12:41:24.000Z</time>
      </trkpt>
      <trkpt lat="43.52886" lon="6.32585">
        <ele>326</ele>
        <time>2021-09-10T12:41:33.000Z</time>
      </trkpt>
      <trkpt lat="43.52889" lon="6.32572">
        <ele>326.2</ele>
        <time>2021-09-10T12:41:42.000Z</time>
      </trkpt>
      <trkpt lat="43.52891" lon="6.32559">
        <ele>326.2</ele>
        <time>2021-09-10T12:41:50.000Z</time>
      </trkpt>
      <trkpt lat="43.52893" lon="6.32546">
        <ele>326.3</ele>
        <time>2021-09-10T12:41:59.000Z</time>
      </trkpt>
      <trkpt lat="43.52895" lon="6.32533">
        <ele>326.6</ele>
        <time>2021-09-10T12:42:07.000Z</time>
      </trkpt>
      <trkpt lat="43.52896" lon="6.32519">
        <ele>326.6</ele>
        <time>2021-09-10T12:42:15.000Z</time>
      </trkpt>
      <trkpt lat="43.52898" lon="6.32505">
        <ele>326.4</ele>
        <time>2021-09-10T12:42:24.000Z</time>
      </trkpt>
      <trkpt lat="43.52899" lon="6.32493">
        <ele>326</ele>
        <time>2021-09-10T12:42:37.000Z</time>
      </trkpt>
      <trkpt lat="43.52899" lon="6.3248">
        <ele>325.9</ele>
        <time>2021-09-10T12:43:02.000Z</time>
      </trkpt>
      <trkpt lat="43.52908" lon="6.32486">
        <ele>326.6</ele>
        <time>2021-09-10T12:43:16.000Z</time>
      </trkpt>
      <trkpt lat="43.52913" lon="6.32496">
        <ele>327.4</ele>
        <time>2021-09-10T12:43:30.000Z</time>
      </trkpt>
      <trkpt lat="43.52917" lon="6.32507">
        <ele>327.7</ele>
        <time>2021-09-10T12:43:44.000Z</time>
      </trkpt>
      <trkpt lat="43.52923" lon="6.32517">
        <ele>328.6</ele>
        <time>2021-09-10T12:43:57.000Z</time>
      </trkpt>
      <trkpt lat="43.52929" lon="6.32526">
        <ele>329.6</ele>
        <time>2021-09-10T12:44:09.000Z</time>
      </trkpt>
      <trkpt lat="43.52934" lon="6.32536">
        <ele>330.5</ele>
        <time>2021-09-10T12:44:21.000Z</time>
      </trkpt>
      <trkpt lat="43.52939" lon="6.32547">
        <ele>331.2</ele>
        <time>2021-09-10T12:44:33.000Z</time>
      </trkpt>
      <trkpt lat="43.52945" lon="6.32557">
        <ele>332.1</ele>
        <time>2021-09-10T12:45:04.000Z</time>
      </trkpt>
      <trkpt lat="43.52954" lon="6.32563">
        <ele>333</ele>
        <time>2021-09-10T12:45:22.000Z</time>
      </trkpt>
      <trkpt lat="43.52962" lon="6.3257">
        <ele>334.8</ele>
        <time>2021-09-10T12:45:35.000Z</time>
      </trkpt>
      <trkpt lat="43.52971" lon="6.32572">
        <ele>336.9</ele>
        <time>2021-09-10T12:48:23.000Z</time>
      </trkpt>
      <trkpt lat="43.52981" lon="6.32575">
        <ele>338.4</ele>
        <time>2021-09-10T12:49:11.000Z</time>
      </trkpt>
      <trkpt lat="43.5299" lon="6.32578">
        <ele>339.7</ele>
        <time>2021-09-10T12:49:26.000Z</time>
      </trkpt>
      <trkpt lat="43.52999" lon="6.32583">
        <ele>339.6</ele>
        <time>2021-09-10T12:49:39.000Z</time>
      </trkpt>
      <trkpt lat="43.53005" lon="6.32592">
        <ele>340</ele>
        <time>2021-09-10T12:49:58.000Z</time>
      </trkpt>
      <trkpt lat="43.53011" lon="6.32602">
        <ele>340.7</ele>
        <time>2021-09-10T12:50:13.000Z</time>
      </trkpt>
      <trkpt lat="43.53018" lon="6.3261">
        <ele>340.8</ele>
        <time>2021-09-10T12:50:24.000Z</time>
      </trkpt>
      <trkpt lat="43.53026" lon="6.32617">
        <ele>341.2</ele>
        <time>2021-09-10T12:50:35.000Z</time>
      </trkpt>
      <trkpt lat="43.53033" lon="6.32625">
        <ele>341.9</ele>
        <time>2021-09-10T12:50:48.000Z</time>
      </trkpt>
      <trkpt lat="43.53041" lon="6.32631">
        <ele>342.4</ele>
        <time>2021-09-10T12:51:08.000Z</time>
      </trkpt>
      <trkpt lat="43.53049" lon="6.32627">
        <ele>343.4</ele>
        <time>2021-09-10T12:51:19.000Z</time>
      </trkpt>
      <trkpt lat="43.53058" lon="6.32621">
        <ele>343.6</ele>
        <time>2021-09-10T12:51:28.000Z</time>
      </trkpt>
      <trkpt lat="43.53065" lon="6.32612">
        <ele>343.8</ele>
        <time>2021-09-10T12:51:39.000Z</time>
      </trkpt>
      <trkpt lat="43.53071" lon="6.32602">
        <ele>344.5</ele>
        <time>2021-09-10T12:51:49.000Z</time>
      </trkpt>
      <trkpt lat="43.53077" lon="6.32592">
        <ele>345.3</ele>
        <time>2021-09-10T12:51:59.000Z</time>
      </trkpt>
      <trkpt lat="43.53081" lon="6.32581">
        <ele>346</ele>
        <time>2021-09-10T12:52:41.000Z</time>
      </trkpt>
      <trkpt lat="43.53089" lon="6.32575">
        <ele>346.5</ele>
        <time>2021-09-10T12:53:09.000Z</time>
      </trkpt>
      <trkpt lat="43.53097" lon="6.32568">
        <ele>346.7</ele>
        <time>2021-09-10T12:53:18.000Z</time>
      </trkpt>
      <trkpt lat="43.53106" lon="6.32562">
        <ele>346.5</ele>
        <time>2021-09-10T12:53:26.000Z</time>
      </trkpt>
      <trkpt lat="43.53115" lon="6.32555">
        <ele>346.7</ele>
        <time>2021-09-10T12:53:33.000Z</time>
      </trkpt>
      <trkpt lat="43.53123" lon="6.32547">
        <ele>347.2</ele>
        <time>2021-09-10T12:53:41.000Z</time>
      </trkpt>
      <trkpt lat="43.53131" lon="6.3254">
        <ele>347.8</ele>
        <time>2021-09-10T12:53:48.000Z</time>
      </trkpt>
      <trkpt lat="43.5314" lon="6.32534">
        <ele>348</ele>
        <time>2021-09-10T12:53:56.000Z</time>
      </trkpt>
      <trkpt lat="43.53149" lon="6.3253">
        <ele>348.2</ele>
        <time>2021-09-10T12:54:05.000Z</time>
      </trkpt>
      <trkpt lat="43.53158" lon="6.3253">
        <ele>348.5</ele>
        <time>2021-09-10T12:54:14.000Z</time>
      </trkpt>
      <trkpt lat="43.53167" lon="6.32537">
        <ele>348.3</ele>
        <time>2021-09-10T12:54:23.000Z</time>
      </trkpt>
      <trkpt lat="43.53174" lon="6.32546">
        <ele>347.8</ele>
        <time>2021-09-10T12:54:32.000Z</time>
      </trkpt>
      <trkpt lat="43.5318" lon="6.32557">
        <ele>346.8</ele>
        <time>2021-09-10T12:54:44.000Z</time>
      </trkpt>
      <trkpt lat="43.53186" lon="6.32566">
        <ele>345.4</ele>
        <time>2021-09-10T12:55:04.000Z</time>
      </trkpt>
      <trkpt lat="43.53196" lon="6.32567">
        <ele>344.8</ele>
        <time>2021-09-10T12:55:15.000Z</time>
      </trkpt>
      <trkpt lat="43.53204" lon="6.32573">
        <ele>343.8</ele>
        <time>2021-09-10T12:55:39.000Z</time>
      </trkpt>
      <trkpt lat="43.53211" lon="6.32564">
        <ele>343.4</ele>
        <time>2021-09-10T12:56:04.000Z</time>
      </trkpt>
      <trkpt lat="43.53218" lon="6.32573">
        <ele>342.9</ele>
        <time>2021-09-10T12:56:20.000Z</time>
      </trkpt>
      <trkpt lat="43.53219" lon="6.32586">
        <ele>342</ele>
        <time>2021-09-10T12:56:29.000Z</time>
      </trkpt>
      <trkpt lat="43.53223" lon="6.32573">
        <ele>341.3</ele>
        <time>2021-09-10T12:56:52.000Z</time>
      </trkpt>
      <trkpt lat="43.53228" lon="6.32562">
        <ele>342.7</ele>
        <time>2021-09-10T12:56:59.000Z</time>
      </trkpt>
      <trkpt lat="43.53238" lon="6.32566">
        <ele>342.4</ele>
        <time>2021-09-10T12:57:09.000Z</time>
      </trkpt>
      <trkpt lat="43.53245" lon="6.32573">
        <ele>342.3</ele>
        <time>2021-09-10T12:57:18.000Z</time>
      </trkpt>
      <trkpt lat="43.53254" lon="6.32579">
        <ele>341.7</ele>
        <time>2021-09-10T12:57:41.000Z</time>
      </trkpt>
      <trkpt lat="43.53263" lon="6.3258">
        <ele>341</ele>
        <time>2021-09-10T12:57:57.000Z</time>
      </trkpt>
      <trkpt lat="43.53271" lon="6.32574">
        <ele>340.7</ele>
        <time>2021-09-10T12:58:07.000Z</time>
      </trkpt>
      <trkpt lat="43.5328" lon="6.32569">
        <ele>340.7</ele>
        <time>2021-09-10T12:58:16.000Z</time>
      </trkpt>
      <trkpt lat="43.53286" lon="6.3256">
        <ele>340</ele>
        <time>2021-09-10T12:58:32.000Z</time>
      </trkpt>
      <trkpt lat="43.53294" lon="6.32554">
        <ele>340.4</ele>
        <time>2021-09-10T12:58:47.000Z</time>
      </trkpt>
      <trkpt lat="43.53303" lon="6.32556">
        <ele>340.4</ele>
        <time>2021-09-10T12:59:08.000Z</time>
      </trkpt>
      <trkpt lat="43.53294" lon="6.32558">
        <ele>339.9</ele>
        <time>2021-09-10T13:01:48.000Z</time>
      </trkpt>
      <trkpt lat="43.53303" lon="6.32558">
        <ele>339.9</ele>
        <time>2021-09-10T13:06:22.000Z</time>
      </trkpt>
      <trkpt lat="43.53311" lon="6.32551">
        <ele>340</ele>
        <time>2021-09-10T13:07:44.000Z</time>
      </trkpt>
      <trkpt lat="43.53309" lon="6.32538">
        <ele>340.4</ele>
        <time>2021-09-10T13:07:57.000Z</time>
      </trkpt>
      <trkpt lat="43.53307" lon="6.32526">
        <ele>341.2</ele>
        <time>2021-09-10T13:08:06.000Z</time>
      </trkpt>
      <trkpt lat="43.53305" lon="6.32512">
        <ele>342.2</ele>
        <time>2021-09-10T13:08:17.000Z</time>
      </trkpt>
      <trkpt lat="43.53303" lon="6.325">
        <ele>343.2</ele>
        <time>2021-09-10T13:08:27.000Z</time>
      </trkpt>
      <trkpt lat="43.533" lon="6.32488">
        <ele>344.1</ele>
        <time>2021-09-10T13:08:42.000Z</time>
      </trkpt>
      <trkpt lat="43.53296" lon="6.32477">
        <ele>345.3</ele>
        <time>2021-09-10T13:08:52.000Z</time>
      </trkpt>
      <trkpt lat="43.5329" lon="6.32467">
        <ele>346.5</ele>
        <time>2021-09-10T13:09:07.000Z</time>
      </trkpt>
      <trkpt lat="43.53286" lon="6.32455">
        <ele>347.1</ele>
        <time>2021-09-10T13:09:17.000Z</time>
      </trkpt>
      <trkpt lat="43.53284" lon="6.32443">
        <ele>348</ele>
        <time>2021-09-10T13:09:28.000Z</time>
      </trkpt>
      <trkpt lat="43.53286" lon="6.3243">
        <ele>348.3</ele>
        <time>2021-09-10T13:09:40.000Z</time>
      </trkpt>
      <trkpt lat="43.53289" lon="6.32417">
        <ele>348.8</ele>
        <time>2021-09-10T13:09:50.000Z</time>
      </trkpt>
      <trkpt lat="43.53294" lon="6.32407">
        <ele>349.4</ele>
        <time>2021-09-10T13:10:00.000Z</time>
      </trkpt>
      <trkpt lat="43.53302" lon="6.32398">
        <ele>349.9</ele>
        <time>2021-09-10T13:10:12.000Z</time>
      </trkpt>
      <trkpt lat="43.5331" lon="6.32391">
        <ele>349.8</ele>
        <time>2021-09-10T13:10:40.000Z</time>
      </trkpt>
      <trkpt lat="43.53317" lon="6.32381">
        <ele>349.6</ele>
        <time>2021-09-10T13:10:50.000Z</time>
      </trkpt>
      <trkpt lat="43.53324" lon="6.32373">
        <ele>349.9</ele>
        <time>2021-09-10T13:10:59.000Z</time>
      </trkpt>
      <trkpt lat="43.53332" lon="6.32364">
        <ele>349.7</ele>
        <time>2021-09-10T13:11:09.000Z</time>
      </trkpt>
      <trkpt lat="43.53339" lon="6.32355">
        <ele>350.1</ele>
        <time>2021-09-10T13:11:20.000Z</time>
      </trkpt>
      <trkpt lat="43.53346" lon="6.32347">
        <ele>350.5</ele>
        <time>2021-09-10T13:11:29.000Z</time>
      </trkpt>
      <trkpt lat="43.53354" lon="6.32342">
        <ele>350.3</ele>
        <time>2021-09-10T13:11:37.000Z</time>
      </trkpt>
      <trkpt lat="43.53362" lon="6.32336">
        <ele>350.4</ele>
        <time>2021-09-10T13:11:46.000Z</time>
      </trkpt>
      <trkpt lat="43.5337" lon="6.32328">
        <ele>350.3</ele>
        <time>2021-09-10T13:11:59.000Z</time>
      </trkpt>
      <trkpt lat="43.53377" lon="6.3232">
        <ele>350.7</ele>
        <time>2021-09-10T13:12:15.000Z</time>
      </trkpt>
      <trkpt lat="43.53384" lon="6.32313">
        <ele>351.1</ele>
        <time>2021-09-10T13:12:27.000Z</time>
      </trkpt>
      <trkpt lat="43.53394" lon="6.32313">
        <ele>351</ele>
        <time>2021-09-10T13:12:46.000Z</time>
      </trkpt>
      <trkpt lat="43.534" lon="6.32322">
        <ele>350.5</ele>
        <time>2021-09-10T13:12:59.000Z</time>
      </trkpt>
      <trkpt lat="43.53406" lon="6.32332">
        <ele>350.3</ele>
        <time>2021-09-10T13:13:12.000Z</time>
      </trkpt>
      <trkpt lat="43.53411" lon="6.32342">
        <ele>349.7</ele>
        <time>2021-09-10T13:13:25.000Z</time>
      </trkpt>
      <trkpt lat="43.53416" lon="6.32354">
        <ele>349.1</ele>
        <time>2021-09-10T13:13:37.000Z</time>
      </trkpt>
      <trkpt lat="43.53422" lon="6.32364">
        <ele>349.3</ele>
        <time>2021-09-10T13:13:49.000Z</time>
      </trkpt>
      <trkpt lat="43.53429" lon="6.32371">
        <ele>348.6</ele>
        <time>2021-09-10T13:14:00.000Z</time>
      </trkpt>
      <trkpt lat="43.53436" lon="6.32381">
        <ele>347.8</ele>
        <time>2021-09-10T13:14:11.000Z</time>
      </trkpt>
      <trkpt lat="43.53443" lon="6.3239">
        <ele>347.6</ele>
        <time>2021-09-10T13:14:21.000Z</time>
      </trkpt>
      <trkpt lat="43.5345" lon="6.32398">
        <ele>346.9</ele>
        <time>2021-09-10T13:14:31.000Z</time>
      </trkpt>
      <trkpt lat="43.53459" lon="6.32405">
        <ele>346.4</ele>
        <time>2021-09-10T13:14:42.000Z</time>
      </trkpt>
      <trkpt lat="43.53465" lon="6.32415">
        <ele>346.4</ele>
        <time>2021-09-10T13:14:53.000Z</time>
      </trkpt>
      <trkpt lat="43.53471" lon="6.32424">
        <ele>345.7</ele>
        <time>2021-09-10T13:15:06.000Z</time>
      </trkpt>
      <trkpt lat="43.53477" lon="6.32435">
        <ele>344.8</ele>
        <time>2021-09-10T13:15:17.000Z</time>
      </trkpt>
      <trkpt lat="43.53486" lon="6.32441">
        <ele>344</ele>
        <time>2021-09-10T13:15:30.000Z</time>
      </trkpt>
      <trkpt lat="43.53495" lon="6.32442">
        <ele>343.1</ele>
        <time>2021-09-10T13:15:42.000Z</time>
      </trkpt>
      <trkpt lat="43.53504" lon="6.32447">
        <ele>343</ele>
        <time>2021-09-10T13:15:50.000Z</time>
      </trkpt>
      <trkpt lat="43.53512" lon="6.32453">
        <ele>343.2</ele>
        <time>2021-09-10T13:16:03.000Z</time>
      </trkpt>
      <trkpt lat="43.53519" lon="6.32461">
        <ele>331.2</ele>
        <time>2021-09-10T13:16:15.000Z</time>
      </trkpt>
      <trkpt lat="43.53528" lon="6.32466">
        <ele>341.5</ele>
        <time>2021-09-10T13:16:24.000Z</time>
      </trkpt>
      <trkpt lat="43.53537" lon="6.32471">
        <ele>343.6</ele>
        <time>2021-09-10T13:16:33.000Z</time>
      </trkpt>
      <trkpt lat="43.53545" lon="6.32475">
        <ele>344.6</ele>
        <time>2021-09-10T13:16:42.000Z</time>
      </trkpt>
      <trkpt lat="43.53554" lon="6.32481">
        <ele>344.9</ele>
        <time>2021-09-10T13:16:53.000Z</time>
      </trkpt>
      <trkpt lat="43.53563" lon="6.32487">
        <ele>344.8</ele>
        <time>2021-09-10T13:17:03.000Z</time>
      </trkpt>
      <trkpt lat="43.53572" lon="6.32492">
        <ele>344.4</ele>
        <time>2021-09-10T13:17:16.000Z</time>
      </trkpt>
      <trkpt lat="43.53581" lon="6.32497">
        <ele>344.6</ele>
        <time>2021-09-10T13:17:27.000Z</time>
      </trkpt>
      <trkpt lat="43.5359" lon="6.32503">
        <ele>344.8</ele>
        <time>2021-09-10T13:17:35.000Z</time>
      </trkpt>
      <trkpt lat="43.53598" lon="6.32508">
        <ele>345</ele>
        <time>2021-09-10T13:17:44.000Z</time>
      </trkpt>
      <trkpt lat="43.53607" lon="6.32512">
        <ele>345.2</ele>
        <time>2021-09-10T13:17:54.000Z</time>
      </trkpt>
      <trkpt lat="43.53616" lon="6.32517">
        <ele>346</ele>
        <time>2021-09-10T13:18:05.000Z</time>
      </trkpt>
      <trkpt lat="43.53625" lon="6.32522">
        <ele>345.9</ele>
        <time>2021-09-10T13:18:15.000Z</time>
      </trkpt>
      <trkpt lat="43.53633" lon="6.32528">
        <ele>345.2</ele>
        <time>2021-09-10T13:18:25.000Z</time>
      </trkpt>
      <trkpt lat="43.53642" lon="6.32533">
        <ele>344.5</ele>
        <time>2021-09-10T13:18:34.000Z</time>
      </trkpt>
      <trkpt lat="43.5365" lon="6.32539">
        <ele>344</ele>
        <time>2021-09-10T13:18:43.000Z</time>
      </trkpt>
      <trkpt lat="43.53657" lon="6.32547">
        <ele>343.9</ele>
        <time>2021-09-10T13:18:52.000Z</time>
      </trkpt>
      <trkpt lat="43.5366" lon="6.3256">
        <ele>343.6</ele>
        <time>2021-09-10T13:19:01.000Z</time>
      </trkpt>
      <trkpt lat="43.53663" lon="6.32572">
        <ele>343.9</ele>
        <time>2021-09-10T13:19:10.000Z</time>
      </trkpt>
      <trkpt lat="43.53664" lon="6.32585">
        <ele>344.7</ele>
        <time>2021-09-10T13:19:19.000Z</time>
      </trkpt>
      <trkpt lat="43.53664" lon="6.32597">
        <ele>345</ele>
        <time>2021-09-10T13:19:28.000Z</time>
      </trkpt>
      <trkpt lat="43.53668" lon="6.32609">
        <ele>345.3</ele>
        <time>2021-09-10T13:19:37.000Z</time>
      </trkpt>
      <trkpt lat="43.53673" lon="6.3262">
        <ele>345.6</ele>
        <time>2021-09-10T13:19:46.000Z</time>
      </trkpt>
      <trkpt lat="43.53675" lon="6.32633">
        <ele>346</ele>
        <time>2021-09-10T13:19:56.000Z</time>
      </trkpt>
      <trkpt lat="43.53679" lon="6.32644">
        <ele>346</ele>
        <time>2021-09-10T13:20:05.000Z</time>
      </trkpt>
      <trkpt lat="43.53681" lon="6.32657">
        <ele>345.6</ele>
        <time>2021-09-10T13:20:14.000Z</time>
      </trkpt>
      <trkpt lat="43.53682" lon="6.3267">
        <ele>345.1</ele>
        <time>2021-09-10T13:20:24.000Z</time>
      </trkpt>
      <trkpt lat="43.53684" lon="6.32683">
        <ele>344.8</ele>
        <time>2021-09-10T13:20:32.000Z</time>
      </trkpt>
      <trkpt lat="43.53687" lon="6.32695">
        <ele>344.6</ele>
        <time>2021-09-10T13:20:41.000Z</time>
      </trkpt>
      <trkpt lat="43.53688" lon="6.32709">
        <ele>344.3</ele>
        <time>2021-09-10T13:20:50.000Z</time>
      </trkpt>
      <trkpt lat="43.53691" lon="6.32721">
        <ele>344.4</ele>
        <time>2021-09-10T13:20:59.000Z</time>
      </trkpt>
      <trkpt lat="43.53693" lon="6.32734">
        <ele>344.4</ele>
        <time>2021-09-10T13:21:09.000Z</time>
      </trkpt>
      <trkpt lat="43.53697" lon="6.32747">
        <ele>344.3</ele>
        <time>2021-09-10T13:21:18.000Z</time>
      </trkpt>
      <trkpt lat="43.53701" lon="6.32759">
        <ele>343.7</ele>
        <time>2021-09-10T13:21:29.000Z</time>
      </trkpt>
      <trkpt lat="43.53705" lon="6.32771">
        <ele>343.1</ele>
        <time>2021-09-10T13:21:39.000Z</time>
      </trkpt>
      <trkpt lat="43.53709" lon="6.32783">
        <ele>342.5</ele>
        <time>2021-09-10T13:21:49.000Z</time>
      </trkpt>
      <trkpt lat="43.53712" lon="6.32795">
        <ele>341.9</ele>
        <time>2021-09-10T13:21:58.000Z</time>
      </trkpt>
      <trkpt lat="43.53714" lon="6.32807">
        <ele>342</ele>
        <time>2021-09-10T13:22:08.000Z</time>
      </trkpt>
      <trkpt lat="43.53719" lon="6.32819">
        <ele>342.1</ele>
        <time>2021-09-10T13:22:17.000Z</time>
      </trkpt>
      <trkpt lat="43.53723" lon="6.32831">
        <ele>342.7</ele>
        <time>2021-09-10T13:22:28.000Z</time>
      </trkpt>
      <trkpt lat="43.53728" lon="6.32841">
        <ele>343.1</ele>
        <time>2021-09-10T13:22:38.000Z</time>
      </trkpt>
      <trkpt lat="43.53736" lon="6.32849">
        <ele>343.3</ele>
        <time>2021-09-10T13:22:47.000Z</time>
      </trkpt>
      <trkpt lat="43.53742" lon="6.32859">
        <ele>343.5</ele>
        <time>2021-09-10T13:22:58.000Z</time>
      </trkpt>
      <trkpt lat="43.5375" lon="6.32868">
        <ele>343.4</ele>
        <time>2021-09-10T13:23:09.000Z</time>
      </trkpt>
      <trkpt lat="43.53756" lon="6.32878">
        <ele>343.4</ele>
        <time>2021-09-10T13:23:18.000Z</time>
      </trkpt>
      <trkpt lat="43.53762" lon="6.32887">
        <ele>343.8</ele>
        <time>2021-09-10T13:25:09.000Z</time>
      </trkpt>
      <trkpt lat="43.53766" lon="6.32899">
        <ele>344.2</ele>
        <time>2021-09-10T13:25:22.000Z</time>
      </trkpt>
      <trkpt lat="43.53763" lon="6.32911">
        <ele>346.1</ele>
        <time>2021-09-10T13:25:46.000Z</time>
      </trkpt>
      <trkpt lat="43.53758" lon="6.32922">
        <ele>346.7</ele>
        <time>2021-09-10T13:25:59.000Z</time>
      </trkpt>
      <trkpt lat="43.53765" lon="6.32931">
        <ele>346.8</ele>
        <time>2021-09-10T13:26:13.000Z</time>
      </trkpt>
      <trkpt lat="43.53772" lon="6.32939">
        <ele>347.5</ele>
        <time>2021-09-10T13:26:28.000Z</time>
      </trkpt>
      <trkpt lat="43.53777" lon="6.3295">
        <ele>348.5</ele>
        <time>2021-09-10T13:26:41.000Z</time>
      </trkpt>
      <trkpt lat="43.53783" lon="6.3296">
        <ele>349</ele>
        <time>2021-09-10T13:26:51.000Z</time>
      </trkpt>
      <trkpt lat="43.53786" lon="6.32971">
        <ele>348.6</ele>
        <time>2021-09-10T13:27:04.000Z</time>
      </trkpt>
      <trkpt lat="43.53789" lon="6.32984">
        <ele>350.9</ele>
        <time>2021-09-10T13:27:15.000Z</time>
      </trkpt>
      <trkpt lat="43.53794" lon="6.32996">
        <ele>352.2</ele>
        <time>2021-09-10T13:27:27.000Z</time>
      </trkpt>
      <trkpt lat="43.53799" lon="6.33007">
        <ele>352.9</ele>
        <time>2021-09-10T13:27:41.000Z</time>
      </trkpt>
      <trkpt lat="43.53803" lon="6.33018">
        <ele>353.9</ele>
        <time>2021-09-10T13:27:51.000Z</time>
      </trkpt>
      <trkpt lat="43.53806" lon="6.33031">
        <ele>354.6</ele>
        <time>2021-09-10T13:28:03.000Z</time>
      </trkpt>
      <trkpt lat="43.5381" lon="6.33042">
        <ele>355</ele>
        <time>2021-09-10T13:28:15.000Z</time>
      </trkpt>
      <trkpt lat="43.53816" lon="6.33053">
        <ele>355.4</ele>
        <time>2021-09-10T13:28:25.000Z</time>
      </trkpt>
      <trkpt lat="43.53821" lon="6.33063">
        <ele>355.4</ele>
        <time>2021-09-10T13:28:35.000Z</time>
      </trkpt>
      <trkpt lat="43.53826" lon="6.33074">
        <ele>355.2</ele>
        <time>2021-09-10T13:28:44.000Z</time>
      </trkpt>
      <trkpt lat="43.53829" lon="6.33086">
        <ele>354.7</ele>
        <time>2021-09-10T13:28:54.000Z</time>
      </trkpt>
      <trkpt lat="43.53834" lon="6.33097">
        <ele>354.8</ele>
        <time>2021-09-10T13:29:05.000Z</time>
      </trkpt>
      <trkpt lat="43.53837" lon="6.33109">
        <ele>354.7</ele>
        <time>2021-09-10T13:29:15.000Z</time>
      </trkpt>
      <trkpt lat="43.53837" lon="6.33122">
        <ele>354.7</ele>
        <time>2021-09-10T13:29:32.000Z</time>
      </trkpt>
      <trkpt lat="43.53839" lon="6.33135">
        <ele>354.8</ele>
        <time>2021-09-10T13:30:01.000Z</time>
      </trkpt>
      <trkpt lat="43.53833" lon="6.33145">
        <ele>354.6</ele>
        <time>2021-09-10T13:30:14.000Z</time>
      </trkpt>
      <trkpt lat="43.53826" lon="6.33153">
        <ele>354.5</ele>
        <time>2021-09-10T13:30:30.000Z</time>
      </trkpt>
      <trkpt lat="43.53819" lon="6.33161">
        <ele>354.4</ele>
        <time>2021-09-10T13:30:42.000Z</time>
      </trkpt>
      <trkpt lat="43.53812" lon="6.33169">
        <ele>354.5</ele>
        <time>2021-09-10T13:30:52.000Z</time>
      </trkpt>
      <trkpt lat="43.53804" lon="6.33178">
        <ele>354.1</ele>
        <time>2021-09-10T13:31:03.000Z</time>
      </trkpt>
      <trkpt lat="43.53798" lon="6.33187">
        <ele>354</ele>
        <time>2021-09-10T13:31:12.000Z</time>
      </trkpt>
      <trkpt lat="43.53791" lon="6.33196">
        <ele>354.5</ele>
        <time>2021-09-10T13:31:21.000Z</time>
      </trkpt>
      <trkpt lat="43.53784" lon="6.33205">
        <ele>354.6</ele>
        <time>2021-09-10T13:31:29.000Z</time>
      </trkpt>
      <trkpt lat="43.53777" lon="6.33216">
        <ele>354.5</ele>
        <time>2021-09-10T13:31:38.000Z</time>
      </trkpt>
      <trkpt lat="43.53771" lon="6.33225">
        <ele>354.7</ele>
        <time>2021-09-10T13:31:49.000Z</time>
      </trkpt>
      <trkpt lat="43.53765" lon="6.33235">
        <ele>354.7</ele>
        <time>2021-09-10T13:32:02.000Z</time>
      </trkpt>
      <trkpt lat="43.53758" lon="6.33243">
        <ele>354.5</ele>
        <time>2021-09-10T13:32:12.000Z</time>
      </trkpt>
      <trkpt lat="43.53754" lon="6.33254">
        <ele>354</ele>
        <time>2021-09-10T13:32:22.000Z</time>
      </trkpt>
      <trkpt lat="43.53747" lon="6.33263">
        <ele>353.8</ele>
        <time>2021-09-10T13:32:31.000Z</time>
      </trkpt>
      <trkpt lat="43.53741" lon="6.33273">
        <ele>353.8</ele>
        <time>2021-09-10T13:32:42.000Z</time>
      </trkpt>
      <trkpt lat="43.53735" lon="6.33283">
        <ele>353.7</ele>
        <time>2021-09-10T13:32:51.000Z</time>
      </trkpt>
      <trkpt lat="43.53728" lon="6.33292">
        <ele>353.3</ele>
        <time>2021-09-10T13:33:01.000Z</time>
      </trkpt>
      <trkpt lat="43.53721" lon="6.33301">
        <ele>353.1</ele>
        <time>2021-09-10T13:33:11.000Z</time>
      </trkpt>
      <trkpt lat="43.53715" lon="6.33311">
        <ele>352.5</ele>
        <time>2021-09-10T13:33:22.000Z</time>
      </trkpt>
      <trkpt lat="43.53709" lon="6.3332">
        <ele>352.4</ele>
        <time>2021-09-10T13:33:29.000Z</time>
      </trkpt>
      <trkpt lat="43.53703" lon="6.3333">
        <ele>352.3</ele>
        <time>2021-09-10T13:33:41.000Z</time>
      </trkpt>
      <trkpt lat="43.53697" lon="6.33339">
        <ele>351.6</ele>
        <time>2021-09-10T13:33:51.000Z</time>
      </trkpt>
      <trkpt lat="43.53691" lon="6.33348">
        <ele>351.2</ele>
        <time>2021-09-10T13:34:02.000Z</time>
      </trkpt>
      <trkpt lat="43.53684" lon="6.33358">
        <ele>350.6</ele>
        <time>2021-09-10T13:34:12.000Z</time>
      </trkpt>
      <trkpt lat="43.53679" lon="6.33369">
        <ele>350.1</ele>
        <time>2021-09-10T13:34:22.000Z</time>
      </trkpt>
      <trkpt lat="43.53672" lon="6.33378">
        <ele>349.9</ele>
        <time>2021-09-10T13:34:30.000Z</time>
      </trkpt>
      <trkpt lat="43.53665" lon="6.33386">
        <ele>349.6</ele>
        <time>2021-09-10T13:34:39.000Z</time>
      </trkpt>
      <trkpt lat="43.53657" lon="6.33393">
        <ele>349.3</ele>
        <time>2021-09-10T13:34:48.000Z</time>
      </trkpt>
      <trkpt lat="43.53649" lon="6.334">
        <ele>348.8</ele>
        <time>2021-09-10T13:34:58.000Z</time>
      </trkpt>
      <trkpt lat="43.53641" lon="6.33409">
        <ele>348.1</ele>
        <time>2021-09-10T13:35:09.000Z</time>
      </trkpt>
      <trkpt lat="43.53634" lon="6.33418">
        <ele>347.6</ele>
        <time>2021-09-10T13:35:24.000Z</time>
      </trkpt>
      <trkpt lat="43.53626" lon="6.33424">
        <ele>346.8</ele>
        <time>2021-09-10T13:35:34.000Z</time>
      </trkpt>
      <trkpt lat="43.53618" lon="6.33431">
        <ele>346.4</ele>
        <time>2021-09-10T13:35:43.000Z</time>
      </trkpt>
      <trkpt lat="43.53611" lon="6.33439">
        <ele>345.6</ele>
        <time>2021-09-10T13:35:54.000Z</time>
      </trkpt>
      <trkpt lat="43.53602" lon="6.33443">
        <ele>345</ele>
        <time>2021-09-10T13:36:08.000Z</time>
      </trkpt>
      <trkpt lat="43.53593" lon="6.33447">
        <ele>343.9</ele>
        <time>2021-09-10T13:36:19.000Z</time>
      </trkpt>
      <trkpt lat="43.53586" lon="6.33457">
        <ele>343.5</ele>
        <time>2021-09-10T13:36:32.000Z</time>
      </trkpt>
      <trkpt lat="43.53582" lon="6.33468">
        <ele>342.9</ele>
        <time>2021-09-10T13:36:43.000Z</time>
      </trkpt>
      <trkpt lat="43.5358" lon="6.33481">
        <ele>342.4</ele>
        <time>2021-09-10T13:36:56.000Z</time>
      </trkpt>
      <trkpt lat="43.53576" lon="6.33493">
        <ele>342</ele>
        <time>2021-09-10T13:37:08.000Z</time>
      </trkpt>
      <trkpt lat="43.53572" lon="6.33506">
        <ele>341.6</ele>
        <time>2021-09-10T13:37:17.000Z</time>
      </trkpt>
      <trkpt lat="43.53564" lon="6.33512">
        <ele>341.5</ele>
        <time>2021-09-10T13:37:23.000Z</time>
      </trkpt>
      <trkpt lat="43.53556" lon="6.33518">
        <ele>341.7</ele>
        <time>2021-09-10T13:37:35.000Z</time>
      </trkpt>
      <trkpt lat="43.53547" lon="6.33521">
        <ele>342.2</ele>
        <time>2021-09-10T13:37:45.000Z</time>
      </trkpt>
      <trkpt lat="43.53537" lon="6.33523">
        <ele>342.6</ele>
        <time>2021-09-10T13:37:56.000Z</time>
      </trkpt>
      <trkpt lat="43.53528" lon="6.33525">
        <ele>342.8</ele>
        <time>2021-09-10T13:38:06.000Z</time>
      </trkpt>
      <trkpt lat="43.53519" lon="6.33526">
        <ele>343.1</ele>
        <time>2021-09-10T13:38:16.000Z</time>
      </trkpt>
      <trkpt lat="43.53509" lon="6.33529">
        <ele>343.3</ele>
        <time>2021-09-10T13:38:25.000Z</time>
      </trkpt>
      <trkpt lat="43.535" lon="6.33534">
        <ele>343.3</ele>
        <time>2021-09-10T13:38:35.000Z</time>
      </trkpt>
      <trkpt lat="43.53492" lon="6.3354">
        <ele>343.7</ele>
        <time>2021-09-10T13:38:43.000Z</time>
      </trkpt>
      <trkpt lat="43.53484" lon="6.33547">
        <ele>343.5</ele>
        <time>2021-09-10T13:38:53.000Z</time>
      </trkpt>
      <trkpt lat="43.53475" lon="6.33554">
        <ele>343.6</ele>
        <time>2021-09-10T13:39:04.000Z</time>
      </trkpt>
      <trkpt lat="43.53466" lon="6.33559">
        <ele>343.8</ele>
        <time>2021-09-10T13:39:13.000Z</time>
      </trkpt>
      <trkpt lat="43.53457" lon="6.3356">
        <ele>343.8</ele>
        <time>2021-09-10T13:39:23.000Z</time>
      </trkpt>
      <trkpt lat="43.53448" lon="6.33559">
        <ele>343.8</ele>
        <time>2021-09-10T13:39:32.000Z</time>
      </trkpt>
      <trkpt lat="43.53438" lon="6.33561">
        <ele>343.6</ele>
        <time>2021-09-10T13:39:40.000Z</time>
      </trkpt>
      <trkpt lat="43.5343" lon="6.33565">
        <ele>343.1</ele>
        <time>2021-09-10T13:39:52.000Z</time>
      </trkpt>
      <trkpt lat="43.5342" lon="6.33569">
        <ele>343.2</ele>
        <time>2021-09-10T13:40:04.000Z</time>
      </trkpt>
      <trkpt lat="43.53411" lon="6.33572">
        <ele>343.2</ele>
        <time>2021-09-10T13:40:13.000Z</time>
      </trkpt>
      <trkpt lat="43.53402" lon="6.33576">
        <ele>343.1</ele>
        <time>2021-09-10T13:40:22.000Z</time>
      </trkpt>
      <trkpt lat="43.53393" lon="6.33579">
        <ele>343</ele>
        <time>2021-09-10T13:40:32.000Z</time>
      </trkpt>
      <trkpt lat="43.53384" lon="6.33582">
        <ele>343.3</ele>
        <time>2021-09-10T13:40:42.000Z</time>
      </trkpt>
      <trkpt lat="43.53374" lon="6.33583">
        <ele>343.1</ele>
        <time>2021-09-10T13:40:52.000Z</time>
      </trkpt>
      <trkpt lat="43.53364" lon="6.33584">
        <ele>343</ele>
        <time>2021-09-10T13:40:59.000Z</time>
      </trkpt>
      <trkpt lat="43.53354" lon="6.33585">
        <ele>343</ele>
        <time>2021-09-10T13:41:08.000Z</time>
      </trkpt>
      <trkpt lat="43.53345" lon="6.33587">
        <ele>343.1</ele>
        <time>2021-09-10T13:41:17.000Z</time>
      </trkpt>
      <trkpt lat="43.53337" lon="6.33593">
        <ele>342.7</ele>
        <time>2021-09-10T13:41:27.000Z</time>
      </trkpt>
      <trkpt lat="43.53328" lon="6.33598">
        <ele>342.4</ele>
        <time>2021-09-10T13:41:37.000Z</time>
      </trkpt>
      <trkpt lat="43.5332" lon="6.33603">
        <ele>342.3</ele>
        <time>2021-09-10T13:41:46.000Z</time>
      </trkpt>
      <trkpt lat="43.53312" lon="6.33611">
        <ele>342.2</ele>
        <time>2021-09-10T13:41:56.000Z</time>
      </trkpt>
      <trkpt lat="43.53304" lon="6.33618">
        <ele>341.8</ele>
        <time>2021-09-10T13:42:07.000Z</time>
      </trkpt>
      <trkpt lat="43.53301" lon="6.33631">
        <ele>340.6</ele>
        <time>2021-09-10T13:42:24.000Z</time>
      </trkpt>
      <trkpt lat="43.53302" lon="6.33644">
        <ele>339.2</ele>
        <time>2021-09-10T13:42:35.000Z</time>
      </trkpt>
      <trkpt lat="43.53304" lon="6.33656">
        <ele>338.2</ele>
        <time>2021-09-10T13:42:46.000Z</time>
      </trkpt>
      <trkpt lat="43.53307" lon="6.33668">
        <ele>336.8</ele>
        <time>2021-09-10T13:42:57.000Z</time>
      </trkpt>
      <trkpt lat="43.53306" lon="6.3368">
        <ele>335.8</ele>
        <time>2021-09-10T13:43:11.000Z</time>
      </trkpt>
      <trkpt lat="43.53305" lon="6.33693">
        <ele>334.9</ele>
        <time>2021-09-10T13:43:25.000Z</time>
      </trkpt>
      <trkpt lat="43.53304" lon="6.33706">
        <ele>333.2</ele>
        <time>2021-09-10T13:43:43.000Z</time>
      </trkpt>
      <trkpt lat="43.53307" lon="6.33718">
        <ele>332</ele>
        <time>2021-09-10T13:44:00.000Z</time>
      </trkpt>
      <trkpt lat="43.53299" lon="6.33726">
        <ele>331</ele>
        <time>2021-09-10T13:44:14.000Z</time>
      </trkpt>
      <trkpt lat="43.5329" lon="6.33729">
        <ele>330.5</ele>
        <time>2021-09-10T13:44:23.000Z</time>
      </trkpt>
      <trkpt lat="43.53281" lon="6.33732">
        <ele>330.3</ele>
        <time>2021-09-10T13:44:32.000Z</time>
      </trkpt>
      <trkpt lat="43.53272" lon="6.33733">
        <ele>330.4</ele>
        <time>2021-09-10T13:44:41.000Z</time>
      </trkpt>
      <trkpt lat="43.53262" lon="6.33731">
        <ele>330.9</ele>
        <time>2021-09-10T13:44:54.000Z</time>
      </trkpt>
      <trkpt lat="43.53252" lon="6.3373">
        <ele>331.2</ele>
        <time>2021-09-10T13:45:07.000Z</time>
      </trkpt>
      <trkpt lat="43.53243" lon="6.33732">
        <ele>330.8</ele>
        <time>2021-09-10T13:45:17.000Z</time>
      </trkpt>
      <trkpt lat="43.53233" lon="6.33734">
        <ele>330.7</ele>
        <time>2021-09-10T13:45:27.000Z</time>
      </trkpt>
      <trkpt lat="43.53224" lon="6.33735">
        <ele>330.4</ele>
        <time>2021-09-10T13:45:37.000Z</time>
      </trkpt>
      <trkpt lat="43.53215" lon="6.33737">
        <ele>330.3</ele>
        <time>2021-09-10T13:45:49.000Z</time>
      </trkpt>
      <trkpt lat="43.53205" lon="6.33741">
        <ele>329.9</ele>
        <time>2021-09-10T13:46:03.000Z</time>
      </trkpt>
      <trkpt lat="43.53195" lon="6.33741">
        <ele>329</ele>
        <time>2021-09-10T13:46:15.000Z</time>
      </trkpt>
      <trkpt lat="43.53186" lon="6.33742">
        <ele>328.5</ele>
        <time>2021-09-10T13:46:25.000Z</time>
      </trkpt>
      <trkpt lat="43.53176" lon="6.33746">
        <ele>328.5</ele>
        <time>2021-09-10T13:46:35.000Z</time>
      </trkpt>
      <trkpt lat="43.53167" lon="6.3375">
        <ele>328.6</ele>
        <time>2021-09-10T13:46:44.000Z</time>
      </trkpt>
      <trkpt lat="43.53157" lon="6.33754">
        <ele>328.5</ele>
        <time>2021-09-10T13:46:54.000Z</time>
      </trkpt>
      <trkpt lat="43.53148" lon="6.33758">
        <ele>328.6</ele>
        <time>2021-09-10T13:47:03.000Z</time>
      </trkpt>
      <trkpt lat="43.5314" lon="6.33761">
        <ele>328.6</ele>
        <time>2021-09-10T13:47:12.000Z</time>
      </trkpt>
      <trkpt lat="43.53131" lon="6.33763">
        <ele>328.5</ele>
        <time>2021-09-10T13:47:21.000Z</time>
      </trkpt>
      <trkpt lat="43.53121" lon="6.33764">
        <ele>328.2</ele>
        <time>2021-09-10T13:47:30.000Z</time>
      </trkpt>
      <trkpt lat="43.53113" lon="6.33767">
        <ele>327.8</ele>
        <time>2021-09-10T13:47:39.000Z</time>
      </trkpt>
      <trkpt lat="43.53104" lon="6.33769">
        <ele>328.1</ele>
        <time>2021-09-10T13:47:49.000Z</time>
      </trkpt>
      <trkpt lat="43.53094" lon="6.3377">
        <ele>328</ele>
        <time>2021-09-10T13:47:58.000Z</time>
      </trkpt>
      <trkpt lat="43.53084" lon="6.33767">
        <ele>328.3</ele>
        <time>2021-09-10T13:48:10.000Z</time>
      </trkpt>
      <trkpt lat="43.53075" lon="6.33766">
        <ele>328</ele>
        <time>2021-09-10T13:48:20.000Z</time>
      </trkpt>
      <trkpt lat="43.53067" lon="6.33759">
        <ele>328</ele>
        <time>2021-09-10T13:48:31.000Z</time>
      </trkpt>
      <trkpt lat="43.5306" lon="6.33751">
        <ele>328.1</ele>
        <time>2021-09-10T13:48:41.000Z</time>
      </trkpt>
      <trkpt lat="43.53053" lon="6.33741">
        <ele>328.1</ele>
        <time>2021-09-10T13:48:50.000Z</time>
      </trkpt>
      <trkpt lat="43.53048" lon="6.33731">
        <ele>328.1</ele>
        <time>2021-09-10T13:49:14.000Z</time>
      </trkpt>
      <trkpt lat="43.53044" lon="6.33719">
        <ele>327.7</ele>
        <time>2021-09-10T13:49:27.000Z</time>
      </trkpt>
      <trkpt lat="43.53039" lon="6.33709">
        <ele>327.3</ele>
        <time>2021-09-10T13:49:40.000Z</time>
      </trkpt>
      <trkpt lat="43.5303" lon="6.33706">
        <ele>326.4</ele>
        <time>2021-09-10T13:49:50.000Z</time>
      </trkpt>
      <trkpt lat="43.5302" lon="6.33711">
        <ele>325.2</ele>
        <time>2021-09-10T13:50:00.000Z</time>
      </trkpt>
      <trkpt lat="43.53012" lon="6.33716">
        <ele>325.1</ele>
        <time>2021-09-10T13:50:11.000Z</time>
      </trkpt>
      <trkpt lat="43.53003" lon="6.33719">
        <ele>324.1</ele>
        <time>2021-09-10T13:50:22.000Z</time>
      </trkpt>
      <trkpt lat="43.52993" lon="6.33719">
        <ele>323.3</ele>
        <time>2021-09-10T13:50:32.000Z</time>
      </trkpt>
      <trkpt lat="43.52984" lon="6.33719">
        <ele>323.2</ele>
        <time>2021-09-10T13:50:42.000Z</time>
      </trkpt>
      <trkpt lat="43.52975" lon="6.33722">
        <ele>322.9</ele>
        <time>2021-09-10T13:50:53.000Z</time>
      </trkpt>
      <trkpt lat="43.52966" lon="6.33726">
        <ele>322.8</ele>
        <time>2021-09-10T13:51:03.000Z</time>
      </trkpt>
      <trkpt lat="43.52957" lon="6.33723">
        <ele>322.9</ele>
        <time>2021-09-10T13:51:58.000Z</time>
      </trkpt>
      <trkpt lat="43.52951" lon="6.33733">
        <ele>323.2</ele>
        <time>2021-09-10T13:52:18.000Z</time>
      </trkpt>
      <trkpt lat="43.52946" lon="6.33745">
        <ele>323.3</ele>
        <time>2021-09-10T13:52:30.000Z</time>
      </trkpt>
      <trkpt lat="43.52941" lon="6.33756">
        <ele>323.6</ele>
        <time>2021-09-10T13:52:52.000Z</time>
      </trkpt>
      <trkpt lat="43.5294" lon="6.33769">
        <ele>323.5</ele>
        <time>2021-09-10T13:53:06.000Z</time>
      </trkpt>
      <trkpt lat="43.52933" lon="6.33777">
        <ele>323.3</ele>
        <time>2021-09-10T13:53:27.000Z</time>
      </trkpt>
      <trkpt lat="43.52928" lon="6.33789">
        <ele>323.6</ele>
        <time>2021-09-10T13:53:37.000Z</time>
      </trkpt>
      <trkpt lat="43.52923" lon="6.338">
        <ele>323.9</ele>
        <time>2021-09-10T13:53:46.000Z</time>
      </trkpt>
      <trkpt lat="43.52917" lon="6.33811">
        <ele>323.3</ele>
        <time>2021-09-10T13:53:54.000Z</time>
      </trkpt>
      <trkpt lat="43.5291" lon="6.33821">
        <ele>323.1</ele>
        <time>2021-09-10T13:54:02.000Z</time>
      </trkpt>
      <trkpt lat="43.52902" lon="6.33831">
        <ele>322.9</ele>
        <time>2021-09-10T13:54:10.000Z</time>
      </trkpt>
      <trkpt lat="43.52897" lon="6.33842">
        <ele>322.1</ele>
        <time>2021-09-10T13:54:18.000Z</time>
      </trkpt>
      <trkpt lat="43.52891" lon="6.33851">
        <ele>321.5</ele>
        <time>2021-09-10T13:54:26.000Z</time>
      </trkpt>
      <trkpt lat="43.52889" lon="6.33864">
        <ele>320.8</ele>
        <time>2021-09-10T13:54:53.000Z</time>
      </trkpt>
      <trkpt lat="43.52895" lon="6.33873">
        <ele>320.1</ele>
        <time>2021-09-10T13:55:06.000Z</time>
      </trkpt>
      <trkpt lat="43.52902" lon="6.33881">
        <ele>319.7</ele>
        <time>2021-09-10T13:55:33.000Z</time>
      </trkpt>
      <trkpt lat="43.52902" lon="6.33893">
        <ele>319</ele>
        <time>2021-09-10T13:56:09.000Z</time>
      </trkpt>
      <trkpt lat="43.52903" lon="6.33907">
        <ele>317.9</ele>
        <time>2021-09-10T13:56:24.000Z</time>
      </trkpt>
      <trkpt lat="43.52897" lon="6.33916">
        <ele>316.7</ele>
        <time>2021-09-10T13:56:39.000Z</time>
      </trkpt>
      <trkpt lat="43.52889" lon="6.33922">
        <ele>316.8</ele>
        <time>2021-09-10T13:56:54.000Z</time>
      </trkpt>
      <trkpt lat="43.52884" lon="6.33932">
        <ele>315.9</ele>
        <time>2021-09-10T13:57:04.000Z</time>
      </trkpt>
      <trkpt lat="43.52878" lon="6.33943">
        <ele>315.3</ele>
        <time>2021-09-10T13:57:19.000Z</time>
      </trkpt>
      <trkpt lat="43.52876" lon="6.33955">
        <ele>314.7</ele>
        <time>2021-09-10T13:57:34.000Z</time>
      </trkpt>
      <trkpt lat="43.52878" lon="6.33967">
        <ele>313.7</ele>
        <time>2021-09-10T13:57:48.000Z</time>
      </trkpt>
      <trkpt lat="43.52882" lon="6.33979">
        <ele>312.6</ele>
        <time>2021-09-10T13:58:00.000Z</time>
      </trkpt>
      <trkpt lat="43.52882" lon="6.33992">
        <ele>311.5</ele>
        <time>2021-09-10T13:58:14.000Z</time>
      </trkpt>
      <trkpt lat="43.52881" lon="6.34004">
        <ele>310.9</ele>
        <time>2021-09-10T13:58:26.000Z</time>
      </trkpt>
      <trkpt lat="43.52874" lon="6.34013">
        <ele>310.3</ele>
        <time>2021-09-10T13:58:44.000Z</time>
      </trkpt>
      <trkpt lat="43.5287" lon="6.34025">
        <ele>309.5</ele>
        <time>2021-09-10T13:59:23.000Z</time>
      </trkpt>
      <trkpt lat="43.52863" lon="6.34034">
        <ele>308.4</ele>
        <time>2021-09-10T13:59:36.000Z</time>
      </trkpt>
      <trkpt lat="43.52855" lon="6.34041">
        <ele>307.6</ele>
        <time>2021-09-10T13:59:51.000Z</time>
      </trkpt>
      <trkpt lat="43.5285" lon="6.34052">
        <ele>306.2</ele>
        <time>2021-09-10T14:00:10.000Z</time>
      </trkpt>
      <trkpt lat="43.52846" lon="6.34065">
        <ele>304.7</ele>
        <time>2021-09-10T14:00:27.000Z</time>
      </trkpt>
      <trkpt lat="43.52838" lon="6.34072">
        <ele>304.1</ele>
        <time>2021-09-10T14:00:36.000Z</time>
      </trkpt>
      <trkpt lat="43.52829" lon="6.34077">
        <ele>303.8</ele>
        <time>2021-09-10T14:00:46.000Z</time>
      </trkpt>
      <trkpt lat="43.52819" lon="6.3408">
        <ele>303.3</ele>
        <time>2021-09-10T14:00:56.000Z</time>
      </trkpt>
      <trkpt lat="43.5281" lon="6.3408">
        <ele>303.3</ele>
        <time>2021-09-10T14:01:07.000Z</time>
      </trkpt>
      <trkpt lat="43.528" lon="6.34081">
        <ele>303.6</ele>
        <time>2021-09-10T14:01:16.000Z</time>
      </trkpt>
      <trkpt lat="43.52791" lon="6.34084">
        <ele>303.5</ele>
        <time>2021-09-10T14:01:26.000Z</time>
      </trkpt>
      <trkpt lat="43.52782" lon="6.34087">
        <ele>303.3</ele>
        <time>2021-09-10T14:01:35.000Z</time>
      </trkpt>
      <trkpt lat="43.52772" lon="6.34087">
        <ele>303.7</ele>
        <time>2021-09-10T14:01:59.000Z</time>
      </trkpt>
      <trkpt lat="43.52763" lon="6.34088">
        <ele>303.8</ele>
        <time>2021-09-10T14:02:07.000Z</time>
      </trkpt>
      <trkpt lat="43.52754" lon="6.34086">
        <ele>303.7</ele>
        <time>2021-09-10T14:02:16.000Z</time>
      </trkpt>
      <trkpt lat="43.52748" lon="6.34097">
        <ele>303.4</ele>
        <time>2021-09-10T14:02:26.000Z</time>
      </trkpt>
      <trkpt lat="43.52746" lon="6.3411">
        <ele>304.1</ele>
        <time>2021-09-10T14:02:37.000Z</time>
      </trkpt>
      <trkpt lat="43.52738" lon="6.34115">
        <ele>304.1</ele>
        <time>2021-09-10T14:02:47.000Z</time>
      </trkpt>
      <trkpt lat="43.5273" lon="6.34123">
        <ele>303.8</ele>
        <time>2021-09-10T14:02:56.000Z</time>
      </trkpt>
      <trkpt lat="43.52722" lon="6.34129">
        <ele>303</ele>
        <time>2021-09-10T14:03:06.000Z</time>
      </trkpt>
      <trkpt lat="43.52713" lon="6.34131">
        <ele>302.5</ele>
        <time>2021-09-10T14:03:19.000Z</time>
      </trkpt>
      <trkpt lat="43.52708" lon="6.34143">
        <ele>302.2</ele>
        <time>2021-09-10T14:03:29.000Z</time>
      </trkpt>
      <trkpt lat="43.52701" lon="6.34152">
        <ele>302.2</ele>
        <time>2021-09-10T14:03:38.000Z</time>
      </trkpt>
      <trkpt lat="43.52694" lon="6.34159">
        <ele>302.1</ele>
        <time>2021-09-10T14:03:46.000Z</time>
      </trkpt>
      <trkpt lat="43.52686" lon="6.34168">
        <ele>301.8</ele>
        <time>2021-09-10T14:03:56.000Z</time>
      </trkpt>
      <trkpt lat="43.52679" lon="6.34177">
        <ele>301.5</ele>
        <time>2021-09-10T14:04:07.000Z</time>
      </trkpt>
      <trkpt lat="43.52673" lon="6.34186">
        <ele>301.1</ele>
        <time>2021-09-10T14:04:21.000Z</time>
      </trkpt>
      <trkpt lat="43.52666" lon="6.34196">
        <ele>300.4</ele>
        <time>2021-09-10T14:04:33.000Z</time>
      </trkpt>
      <trkpt lat="43.52661" lon="6.34206">
        <ele>299.6</ele>
        <time>2021-09-10T14:04:45.000Z</time>
      </trkpt>
      <trkpt lat="43.52656" lon="6.34216">
        <ele>298.9</ele>
        <time>2021-09-10T14:04:56.000Z</time>
      </trkpt>
      <trkpt lat="43.52652" lon="6.34228">
        <ele>298.5</ele>
        <time>2021-09-10T14:05:10.000Z</time>
      </trkpt>
      <trkpt lat="43.52649" lon="6.3424">
        <ele>297.4</ele>
        <time>2021-09-10T14:05:31.000Z</time>
      </trkpt>
      <trkpt lat="43.52644" lon="6.34251">
        <ele>296.8</ele>
        <time>2021-09-10T14:05:39.000Z</time>
      </trkpt>
      <trkpt lat="43.52638" lon="6.3426">
        <ele>295.9</ele>
        <time>2021-09-10T14:05:48.000Z</time>
      </trkpt>
      <trkpt lat="43.52633" lon="6.34271">
        <ele>296.1</ele>
        <time>2021-09-10T14:06:18.000Z</time>
      </trkpt>
      <trkpt lat="43.52628" lon="6.34282">
        <ele>295.6</ele>
        <time>2021-09-10T14:06:23.000Z</time>
      </trkpt>
      <trkpt lat="43.52624" lon="6.34295">
        <ele>295</ele>
        <time>2021-09-10T14:06:30.000Z</time>
      </trkpt>
      <trkpt lat="43.52621" lon="6.34307">
        <ele>294.2</ele>
        <time>2021-09-10T14:06:38.000Z</time>
      </trkpt>
      <trkpt lat="43.52616" lon="6.34319">
        <ele>293.4</ele>
        <time>2021-09-10T14:06:46.000Z</time>
      </trkpt>
      <trkpt lat="43.52611" lon="6.34329">
        <ele>292.9</ele>
        <time>2021-09-10T14:06:56.000Z</time>
      </trkpt>
      <trkpt lat="43.52609" lon="6.34342">
        <ele>292</ele>
        <time>2021-09-10T14:07:09.000Z</time>
      </trkpt>
      <trkpt lat="43.52602" lon="6.3435">
        <ele>291.4</ele>
        <time>2021-09-10T14:07:18.000Z</time>
      </trkpt>
      <trkpt lat="43.52593" lon="6.34353">
        <ele>291.2</ele>
        <time>2021-09-10T14:07:26.000Z</time>
      </trkpt>
      <trkpt lat="43.52589" lon="6.34365">
        <ele>291.4</ele>
        <time>2021-09-10T14:07:37.000Z</time>
      </trkpt>
      <trkpt lat="43.52587" lon="6.34379">
        <ele>290.7</ele>
        <time>2021-09-10T14:07:47.000Z</time>
      </trkpt>
      <trkpt lat="43.5259" lon="6.34392">
        <ele>290.8</ele>
        <time>2021-09-10T14:07:57.000Z</time>
      </trkpt>
      <trkpt lat="43.5259" lon="6.34405">
        <ele>290.5</ele>
        <time>2021-09-10T14:08:07.000Z</time>
      </trkpt>
      <trkpt lat="43.5259" lon="6.34417">
        <ele>290</ele>
        <time>2021-09-10T14:08:16.000Z</time>
      </trkpt>
      <trkpt lat="43.5259" lon="6.34431">
        <ele>289.7</ele>
        <time>2021-09-10T14:08:25.000Z</time>
      </trkpt>
      <trkpt lat="43.5259" lon="6.34444">
        <ele>289.8</ele>
        <time>2021-09-10T14:08:34.000Z</time>
      </trkpt>
      <trkpt lat="43.52592" lon="6.34457">
        <ele>289.5</ele>
        <time>2021-09-10T14:08:43.000Z</time>
      </trkpt>
      <trkpt lat="43.52594" lon="6.34469">
        <ele>289.6</ele>
        <time>2021-09-10T14:08:53.000Z</time>
      </trkpt>
      <trkpt lat="43.52601" lon="6.34477">
        <ele>289.6</ele>
        <time>2021-09-10T14:09:06.000Z</time>
      </trkpt>
      <trkpt lat="43.5261" lon="6.34479">
        <ele>289.3</ele>
        <time>2021-09-10T14:09:16.000Z</time>
      </trkpt>
      <trkpt lat="43.52619" lon="6.3448">
        <ele>289.1</ele>
        <time>2021-09-10T14:09:24.000Z</time>
      </trkpt>
      <trkpt lat="43.52628" lon="6.3448">
        <ele>288.8</ele>
        <time>2021-09-10T14:09:33.000Z</time>
      </trkpt>
      <trkpt lat="43.52638" lon="6.34479">
        <ele>288.8</ele>
        <time>2021-09-10T14:09:43.000Z</time>
      </trkpt>
      <trkpt lat="43.52647" lon="6.34479">
        <ele>288.3</ele>
        <time>2021-09-10T14:09:51.000Z</time>
      </trkpt>
      <trkpt lat="43.52656" lon="6.34482">
        <ele>288.3</ele>
        <time>2021-09-10T14:10:00.000Z</time>
      </trkpt>
      <trkpt lat="43.52666" lon="6.34484">
        <ele>288.1</ele>
        <time>2021-09-10T14:10:08.000Z</time>
      </trkpt>
      <trkpt lat="43.52674" lon="6.34489">
        <ele>288</ele>
        <time>2021-09-10T14:10:18.000Z</time>
      </trkpt>
      <trkpt lat="43.52683" lon="6.34496">
        <ele>287.6</ele>
        <time>2021-09-10T14:10:26.000Z</time>
      </trkpt>
      <trkpt lat="43.52691" lon="6.34503">
        <ele>287.7</ele>
        <time>2021-09-10T14:10:35.000Z</time>
      </trkpt>
      <trkpt lat="43.52699" lon="6.34511">
        <ele>287.3</ele>
        <time>2021-09-10T14:10:45.000Z</time>
      </trkpt>
      <trkpt lat="43.52705" lon="6.34521">
        <ele>287.1</ele>
        <time>2021-09-10T14:10:56.000Z</time>
      </trkpt>
      <trkpt lat="43.52709" lon="6.34532">
        <ele>287.1</ele>
        <time>2021-09-10T14:11:05.000Z</time>
      </trkpt>
      <trkpt lat="43.52715" lon="6.34542">
        <ele>287.1</ele>
        <time>2021-09-10T14:11:13.000Z</time>
      </trkpt>
      <trkpt lat="43.52717" lon="6.34555">
        <ele>287</ele>
        <time>2021-09-10T14:11:22.000Z</time>
      </trkpt>
      <trkpt lat="43.52716" lon="6.34568">
        <ele>286.9</ele>
        <time>2021-09-10T14:11:35.000Z</time>
      </trkpt>
      <trkpt lat="43.52712" lon="6.3458">
        <ele>286.6</ele>
        <time>2021-09-10T14:11:45.000Z</time>
      </trkpt>
      <trkpt lat="43.52702" lon="6.34582">
        <ele>286.7</ele>
        <time>2021-09-10T14:11:53.000Z</time>
      </trkpt>
      <trkpt lat="43.52694" lon="6.3459">
        <ele>286.7</ele>
        <time>2021-09-10T14:12:03.000Z</time>
      </trkpt>
      <trkpt lat="43.52687" lon="6.346">
        <ele>286.7</ele>
        <time>2021-09-10T14:12:12.000Z</time>
      </trkpt>
      <trkpt lat="43.52681" lon="6.3461">
        <ele>286.8</ele>
        <time>2021-09-10T14:12:23.000Z</time>
      </trkpt>
      <trkpt lat="43.52674" lon="6.34619">
        <ele>287</ele>
        <time>2021-09-10T14:12:31.000Z</time>
      </trkpt>
      <trkpt lat="43.52665" lon="6.34624">
        <ele>287.6</ele>
        <time>2021-09-10T14:12:39.000Z</time>
      </trkpt>
      <trkpt lat="43.52656" lon="6.3463">
        <ele>288.6</ele>
        <time>2021-09-10T14:12:49.000Z</time>
      </trkpt>
      <trkpt lat="43.52648" lon="6.34636">
        <ele>289.6</ele>
        <time>2021-09-10T14:12:58.000Z</time>
      </trkpt>
      <trkpt lat="43.52639" lon="6.3464">
        <ele>290.7</ele>
        <time>2021-09-10T14:13:07.000Z</time>
      </trkpt>
      <trkpt lat="43.5263" lon="6.34643">
        <ele>291.5</ele>
        <time>2021-09-10T14:13:16.000Z</time>
      </trkpt>
      <trkpt lat="43.52621" lon="6.34646">
        <ele>292.3</ele>
        <time>2021-09-10T14:13:25.000Z</time>
      </trkpt>
      <trkpt lat="43.52611" lon="6.34647">
        <ele>293.3</ele>
        <time>2021-09-10T14:13:35.000Z</time>
      </trkpt>
      <trkpt lat="43.52602" lon="6.34649">
        <ele>294.3</ele>
        <time>2021-09-10T14:13:45.000Z</time>
      </trkpt>
      <trkpt lat="43.52593" lon="6.3465">
        <ele>295.6</ele>
        <time>2021-09-10T14:13:56.000Z</time>
      </trkpt>
      <trkpt lat="43.52584" lon="6.34646">
        <ele>296.9</ele>
        <time>2021-09-10T14:14:11.000Z</time>
      </trkpt>
      <trkpt lat="43.52574" lon="6.34646">
        <ele>297.5</ele>
        <time>2021-09-10T14:14:27.000Z</time>
      </trkpt>
      <trkpt lat="43.52565" lon="6.34643">
        <ele>298.1</ele>
        <time>2021-09-10T14:14:39.000Z</time>
      </trkpt>
      <trkpt lat="43.52556" lon="6.3464">
        <ele>299.3</ele>
        <time>2021-09-10T14:14:52.000Z</time>
      </trkpt>
      <trkpt lat="43.52547" lon="6.34636">
        <ele>300.2</ele>
        <time>2021-09-10T14:15:05.000Z</time>
      </trkpt>
      <trkpt lat="43.52538" lon="6.34631">
        <ele>301.1</ele>
        <time>2021-09-10T14:15:19.000Z</time>
      </trkpt>
      <trkpt lat="43.52529" lon="6.34626">
        <ele>301.9</ele>
        <time>2021-09-10T14:15:32.000Z</time>
      </trkpt>
      <trkpt lat="43.52521" lon="6.34621">
        <ele>301.9</ele>
        <time>2021-09-10T14:15:44.000Z</time>
      </trkpt>
      <trkpt lat="43.52512" lon="6.34617">
        <ele>300.8</ele>
        <time>2021-09-10T14:16:06.000Z</time>
      </trkpt>
      <trkpt lat="43.52508" lon="6.34611">
        <ele>300.9</ele>
        <time>2021-09-10T14:17:08.000Z</time>
      </trkpt>
    </trkseg>
  </trk>
</gpx>